﻿<?xml version="1.0" encoding="UTF-8" standalone="no" ?>
<gpx xmlns="http://www.topografix.com/GPX/1/1" creator="CompeGPS" version="1.1" xmlns:xsi="http://www.w3.org/2001/XMLSchema-instance" xsi:schemaLocation="http://www.topografix.com/GPX/1/1 http://www.topografix.com/GPX/1/1/gpx.xsd http://www.garmin.com/xmlschemas/GpxExtensions/v3 http://www.garmin.com/xmlschemas/GpxExtensionsv3.xsd http://www.garmin.com/xmlschemas/TrackPointExtension/v1 http://www.garmin.com/xmlschemas/TrackPointExtensionv1.xsd" xmlns:gpxtpx="http://www.garmin.com/xmlschemas/TrackPointExtension/v1">
  <metadata>
    <link href="http://www.compegps.com">
      <text>CompeGPS TEAM, SL</text>
    </link>
    <time>2015-03-03T20:40:53Z</time>
    <bounds maxlat="42.464374" maxlon="2.227452" minlat="42.423048" minlon="2.198438"/>
  </metadata>
  <trk>
    <name>pic_enfer</name>
    <trkseg>
      <trkpt lat="42.464374" lon="2.223934">
        <ele>1844.4</ele>
        <time>2009-05-16T03:37:10Z</time>
      </trkpt>
      <trkpt lat="42.464265" lon="2.223560">
        <ele>1846.6</ele>
        <time>2009-05-16T03:37:10Z</time>
      </trkpt>
      <trkpt lat="42.464023" lon="2.223120">
        <ele>1849.5</ele>
        <time>2009-05-16T03:37:10Z</time>
      </trkpt>
      <trkpt lat="42.463771" lon="2.222483">
        <ele>1857.2</ele>
        <time>2009-05-16T03:37:10Z</time>
      </trkpt>
      <trkpt lat="42.463447" lon="2.221987">
        <ele>1861.0</ele>
        <time>2009-05-16T03:37:10Z</time>
      </trkpt>
      <trkpt lat="42.463081" lon="2.221788">
        <ele>1859.5</ele>
        <time>2009-05-16T03:37:10Z</time>
      </trkpt>
      <trkpt lat="42.462716" lon="2.221561">
        <ele>1859.4</ele>
        <time>2009-05-16T03:37:10Z</time>
      </trkpt>
      <trkpt lat="42.462203" lon="2.221320">
        <ele>1864.0</ele>
        <time>2009-05-16T03:37:10Z</time>
      </trkpt>
      <trkpt lat="42.461851" lon="2.221098">
        <ele>1870.3</ele>
        <time>2009-05-16T03:37:10Z</time>
      </trkpt>
      <trkpt lat="42.461653" lon="2.220672">
        <ele>1878.3</ele>
        <time>2009-05-16T03:37:10Z</time>
      </trkpt>
      <trkpt lat="42.461529" lon="2.220236">
        <ele>1883.5</ele>
        <time>2009-05-16T03:37:10Z</time>
      </trkpt>
      <trkpt lat="42.461421" lon="2.219805">
        <ele>1890.0</ele>
        <time>2009-05-16T03:37:10Z</time>
      </trkpt>
      <trkpt lat="42.461314" lon="2.219374">
        <ele>1897.9</ele>
        <time>2009-05-16T03:37:10Z</time>
      </trkpt>
      <trkpt lat="42.461206" lon="2.218943">
        <ele>1909.5</ele>
        <time>2009-05-16T03:37:10Z</time>
      </trkpt>
      <trkpt lat="42.460970" lon="2.218815">
        <ele>1910.6</ele>
        <time>2009-05-16T03:37:10Z</time>
      </trkpt>
      <trkpt lat="42.460704" lon="2.218629">
        <ele>1912.4</ele>
        <time>2009-05-16T03:37:10Z</time>
      </trkpt>
      <trkpt lat="42.460622" lon="2.218343">
        <ele>1919.4</ele>
        <time>2009-05-16T03:37:10Z</time>
      </trkpt>
      <trkpt lat="42.460554" lon="2.218057">
        <ele>1909.0</ele>
        <time>2009-05-16T03:37:10Z</time>
      </trkpt>
      <trkpt lat="42.460448" lon="2.217922">
        <ele>1909.0</ele>
        <time>2009-05-16T03:37:45Z</time>
      </trkpt>
      <trkpt lat="42.460421" lon="2.217716">
        <ele>1909.0</ele>
        <time>2009-05-16T03:38:11Z</time>
      </trkpt>
      <trkpt lat="42.460334" lon="2.217680">
        <ele>1909.0</ele>
        <time>2009-05-16T03:38:40Z</time>
      </trkpt>
      <trkpt lat="42.460268" lon="2.217590">
        <ele>1916.0</ele>
        <time>2009-05-16T03:39:00Z</time>
      </trkpt>
      <trkpt lat="42.460142" lon="2.217545">
        <ele>1916.0</ele>
        <time>2009-05-16T03:39:23Z</time>
      </trkpt>
      <trkpt lat="42.460088" lon="2.217446">
        <ele>1916.0</ele>
        <time>2009-05-16T03:39:29Z</time>
      </trkpt>
      <trkpt lat="42.459989" lon="2.217455">
        <ele>1916.0</ele>
        <time>2009-05-16T03:39:53Z</time>
      </trkpt>
      <trkpt lat="42.459915" lon="2.217374">
        <ele>1916.0</ele>
        <time>2009-05-16T03:40:04Z</time>
      </trkpt>
      <trkpt lat="42.459876" lon="2.217258">
        <ele>1923.0</ele>
        <time>2009-05-16T03:40:20Z</time>
      </trkpt>
      <trkpt lat="42.459796" lon="2.217186">
        <ele>1923.0</ele>
        <time>2009-05-16T03:40:40Z</time>
      </trkpt>
      <trkpt lat="42.459696" lon="2.217213">
        <ele>1923.0</ele>
        <time>2009-05-16T03:40:57Z</time>
      </trkpt>
      <trkpt lat="42.459603" lon="2.217204">
        <ele>1923.0</ele>
        <time>2009-05-16T03:41:20Z</time>
      </trkpt>
      <trkpt lat="42.459516" lon="2.217159">
        <ele>1923.0</ele>
        <time>2009-05-16T03:41:51Z</time>
      </trkpt>
      <trkpt lat="42.459430" lon="2.217123">
        <ele>1923.0</ele>
        <time>2009-05-16T03:42:11Z</time>
      </trkpt>
      <trkpt lat="42.459370" lon="2.217006">
        <ele>1923.0</ele>
        <time>2009-05-16T03:42:23Z</time>
      </trkpt>
      <trkpt lat="42.459317" lon="2.216907">
        <ele>1918.0</ele>
        <time>2009-05-16T03:42:35Z</time>
      </trkpt>
      <trkpt lat="42.459257" lon="2.216800">
        <ele>1918.0</ele>
        <time>2009-05-16T03:42:58Z</time>
      </trkpt>
      <trkpt lat="42.459210" lon="2.216674">
        <ele>1927.0</ele>
        <time>2009-05-16T03:44:13Z</time>
      </trkpt>
      <trkpt lat="42.459164" lon="2.216593">
        <ele>1936.0</ele>
        <time>2009-05-16T03:44:29Z</time>
      </trkpt>
      <trkpt lat="42.459064" lon="2.216512">
        <ele>1936.0</ele>
        <time>2009-05-16T03:44:36Z</time>
      </trkpt>
      <trkpt lat="42.459004" lon="2.216377">
        <ele>1936.0</ele>
        <time>2009-05-16T03:44:58Z</time>
      </trkpt>
      <trkpt lat="42.458951" lon="2.216216">
        <ele>1919.0</ele>
        <time>2009-05-16T03:45:32Z</time>
      </trkpt>
      <trkpt lat="42.458878" lon="2.216171">
        <ele>1931.0</ele>
        <time>2009-05-16T03:49:21Z</time>
      </trkpt>
      <trkpt lat="42.458791" lon="2.216207">
        <ele>1931.0</ele>
        <time>2009-05-16T03:49:28Z</time>
      </trkpt>
      <trkpt lat="42.458692" lon="2.216144">
        <ele>1931.0</ele>
        <time>2009-05-16T03:49:37Z</time>
      </trkpt>
      <trkpt lat="42.458592" lon="2.216207">
        <ele>1931.0</ele>
        <time>2009-05-16T03:50:06Z</time>
      </trkpt>
      <trkpt lat="42.458505" lon="2.216153">
        <ele>1931.0</ele>
        <time>2009-05-16T03:50:28Z</time>
      </trkpt>
      <trkpt lat="42.458465" lon="2.216036">
        <ele>1925.0</ele>
        <time>2009-05-16T03:50:38Z</time>
      </trkpt>
      <trkpt lat="42.458432" lon="2.215919">
        <ele>1925.0</ele>
        <time>2009-05-16T03:50:55Z</time>
      </trkpt>
      <trkpt lat="42.458386" lon="2.215811">
        <ele>1933.0</ele>
        <time>2009-05-16T03:51:10Z</time>
      </trkpt>
      <trkpt lat="42.458286" lon="2.215605">
        <ele>1933.0</ele>
        <time>2009-05-16T03:51:33Z</time>
      </trkpt>
      <trkpt lat="42.458199" lon="2.215551">
        <ele>1933.0</ele>
        <time>2009-05-16T03:51:38Z</time>
      </trkpt>
      <trkpt lat="42.458193" lon="2.215407">
        <ele>1927.0</ele>
        <time>2009-05-16T03:51:46Z</time>
      </trkpt>
      <trkpt lat="42.458186" lon="2.215281">
        <ele>1927.0</ele>
        <time>2009-05-16T03:52:12Z</time>
      </trkpt>
      <trkpt lat="42.458100" lon="2.215245">
        <ele>1927.0</ele>
        <time>2009-05-16T03:52:33Z</time>
      </trkpt>
      <trkpt lat="42.458113" lon="2.215093">
        <ele>1934.0</ele>
        <time>2009-05-16T03:52:54Z</time>
      </trkpt>
      <trkpt lat="42.458040" lon="2.214994">
        <ele>1934.0</ele>
        <time>2009-05-16T03:53:04Z</time>
      </trkpt>
      <trkpt lat="42.457973" lon="2.214868">
        <ele>1940.0</ele>
        <time>2009-05-16T03:53:32Z</time>
      </trkpt>
      <trkpt lat="42.457986" lon="2.214742">
        <ele>1940.0</ele>
        <time>2009-05-16T03:53:46Z</time>
      </trkpt>
      <trkpt lat="42.457933" lon="2.214617">
        <ele>1940.0</ele>
        <time>2009-05-16T03:54:00Z</time>
      </trkpt>
      <trkpt lat="42.457960" lon="2.214500">
        <ele>1940.0</ele>
        <time>2009-05-16T03:54:23Z</time>
      </trkpt>
      <trkpt lat="42.457933" lon="2.214383">
        <ele>1948.0</ele>
        <time>2009-05-16T03:54:40Z</time>
      </trkpt>
      <trkpt lat="42.457900" lon="2.214266">
        <ele>1948.0</ele>
        <time>2009-05-16T03:54:53Z</time>
      </trkpt>
      <trkpt lat="42.457887" lon="2.214141">
        <ele>1938.0</ele>
        <time>2009-05-16T03:55:10Z</time>
      </trkpt>
      <trkpt lat="42.457867" lon="2.213997">
        <ele>1944.0</ele>
        <time>2009-05-16T03:56:05Z</time>
      </trkpt>
      <trkpt lat="42.457787" lon="2.213934">
        <ele>1950.0</ele>
        <time>2009-05-16T03:56:28Z</time>
      </trkpt>
      <trkpt lat="42.457634" lon="2.213844">
        <ele>1981.0</ele>
        <time>2009-05-16T04:00:13Z</time>
      </trkpt>
      <trkpt lat="42.457547" lon="2.213808">
        <ele>1981.0</ele>
        <time>2009-05-16T04:00:26Z</time>
      </trkpt>
      <trkpt lat="42.457461" lon="2.213754">
        <ele>1981.0</ele>
        <time>2009-05-16T04:00:43Z</time>
      </trkpt>
      <trkpt lat="42.457374" lon="2.213709">
        <ele>1988.0</ele>
        <time>2009-05-16T04:00:58Z</time>
      </trkpt>
      <trkpt lat="42.457361" lon="2.213584">
        <ele>1988.0</ele>
        <time>2009-05-16T04:02:10Z</time>
      </trkpt>
      <trkpt lat="42.457281" lon="2.213521">
        <ele>1988.0</ele>
        <time>2009-05-16T04:02:23Z</time>
      </trkpt>
      <trkpt lat="42.457295" lon="2.213386">
        <ele>1996.0</ele>
        <time>2009-05-16T04:02:35Z</time>
      </trkpt>
      <trkpt lat="42.457328" lon="2.213269">
        <ele>1996.0</ele>
        <time>2009-05-16T04:02:53Z</time>
      </trkpt>
      <trkpt lat="42.457348" lon="2.213108">
        <ele>1996.0</ele>
        <time>2009-05-16T04:03:20Z</time>
      </trkpt>
      <trkpt lat="42.457374" lon="2.212991">
        <ele>1996.0</ele>
        <time>2009-05-16T04:03:43Z</time>
      </trkpt>
      <trkpt lat="42.457461" lon="2.212946">
        <ele>2016.0</ele>
        <time>2009-05-16T04:04:09Z</time>
      </trkpt>
      <trkpt lat="42.457554" lon="2.212901">
        <ele>2010.0</ele>
        <time>2009-05-16T04:04:23Z</time>
      </trkpt>
      <trkpt lat="42.457567" lon="2.212739">
        <ele>2010.0</ele>
        <time>2009-05-16T04:05:51Z</time>
      </trkpt>
      <trkpt lat="42.457554" lon="2.212613">
        <ele>2010.0</ele>
        <time>2009-05-16T04:06:53Z</time>
      </trkpt>
      <trkpt lat="42.457534" lon="2.212488">
        <ele>2021.0</ele>
        <time>2009-05-16T04:07:30Z</time>
      </trkpt>
      <trkpt lat="42.457514" lon="2.212362">
        <ele>2028.0</ele>
        <time>2009-05-16T04:07:59Z</time>
      </trkpt>
      <trkpt lat="42.457508" lon="2.212236">
        <ele>2028.0</ele>
        <time>2009-05-16T04:08:20Z</time>
      </trkpt>
      <trkpt lat="42.457481" lon="2.212119">
        <ele>2028.0</ele>
        <time>2009-05-16T04:08:44Z</time>
      </trkpt>
      <trkpt lat="42.457414" lon="2.212030">
        <ele>2038.0</ele>
        <time>2009-05-16T04:09:12Z</time>
      </trkpt>
      <trkpt lat="42.457328" lon="2.211967">
        <ele>2038.0</ele>
        <time>2009-05-16T04:09:32Z</time>
      </trkpt>
      <trkpt lat="42.457275" lon="2.211868">
        <ele>2044.0</ele>
        <time>2009-05-16T04:10:52Z</time>
      </trkpt>
      <trkpt lat="42.457188" lon="2.211832">
        <ele>2044.0</ele>
        <time>2009-05-16T04:11:29Z</time>
      </trkpt>
      <trkpt lat="42.457102" lon="2.211796">
        <ele>2044.0</ele>
        <time>2009-05-16T04:11:49Z</time>
      </trkpt>
      <trkpt lat="42.457009" lon="2.211796">
        <ele>2049.0</ele>
        <time>2009-05-16T04:12:05Z</time>
      </trkpt>
      <trkpt lat="42.456922" lon="2.211760">
        <ele>2049.0</ele>
        <time>2009-05-16T04:12:21Z</time>
      </trkpt>
      <trkpt lat="42.456829" lon="2.211742">
        <ele>2049.0</ele>
        <time>2009-05-16T04:12:39Z</time>
      </trkpt>
      <trkpt lat="42.456762" lon="2.211652">
        <ele>2049.0</ele>
        <time>2009-05-16T04:12:55Z</time>
      </trkpt>
      <trkpt lat="42.456729" lon="2.211535">
        <ele>2049.0</ele>
        <time>2009-05-16T04:13:10Z</time>
      </trkpt>
      <trkpt lat="42.456649" lon="2.211473">
        <ele>2049.0</ele>
        <time>2009-05-16T04:13:20Z</time>
      </trkpt>
      <trkpt lat="42.456596" lon="2.211374">
        <ele>2059.0</ele>
        <time>2009-05-16T04:20:32Z</time>
      </trkpt>
      <trkpt lat="42.456550" lon="2.211257">
        <ele>2059.0</ele>
        <time>2009-05-16T04:20:40Z</time>
      </trkpt>
      <trkpt lat="42.456516" lon="2.211140">
        <ele>2059.0</ele>
        <time>2009-05-16T04:20:52Z</time>
      </trkpt>
      <trkpt lat="42.456490" lon="2.211014">
        <ele>2050.0</ele>
        <time>2009-05-16T04:21:02Z</time>
      </trkpt>
      <trkpt lat="42.456503" lon="2.210889">
        <ele>2050.0</ele>
        <time>2009-05-16T04:21:14Z</time>
      </trkpt>
      <trkpt lat="42.456470" lon="2.210772">
        <ele>2064.0</ele>
        <time>2009-05-16T04:21:26Z</time>
      </trkpt>
      <trkpt lat="42.456437" lon="2.210646">
        <ele>2064.0</ele>
        <time>2009-05-16T04:21:38Z</time>
      </trkpt>
      <trkpt lat="42.456423" lon="2.210520">
        <ele>2064.0</ele>
        <time>2009-05-16T04:22:00Z</time>
      </trkpt>
      <trkpt lat="42.456350" lon="2.210440">
        <ele>2048.0</ele>
        <time>2009-05-16T04:22:20Z</time>
      </trkpt>
      <trkpt lat="42.456257" lon="2.210413">
        <ele>2058.0</ele>
        <time>2009-05-16T04:22:40Z</time>
      </trkpt>
      <trkpt lat="42.456170" lon="2.210368">
        <ele>2058.0</ele>
        <time>2009-05-16T04:22:52Z</time>
      </trkpt>
      <trkpt lat="42.456117" lon="2.210269">
        <ele>2058.0</ele>
        <time>2009-05-16T04:23:05Z</time>
      </trkpt>
      <trkpt lat="42.456031" lon="2.210206">
        <ele>2058.0</ele>
        <time>2009-05-16T04:23:15Z</time>
      </trkpt>
      <trkpt lat="42.455978" lon="2.210107">
        <ele>2065.0</ele>
        <time>2009-05-16T04:23:25Z</time>
      </trkpt>
      <trkpt lat="42.455884" lon="2.210080">
        <ele>2065.0</ele>
        <time>2009-05-16T04:23:41Z</time>
      </trkpt>
      <trkpt lat="42.455798" lon="2.210008">
        <ele>2065.0</ele>
        <time>2009-05-16T04:23:56Z</time>
      </trkpt>
      <trkpt lat="42.455731" lon="2.209918">
        <ele>2065.0</ele>
        <time>2009-05-16T04:24:09Z</time>
      </trkpt>
      <trkpt lat="42.455725" lon="2.209784">
        <ele>2065.0</ele>
        <time>2009-05-16T04:24:25Z</time>
      </trkpt>
      <trkpt lat="42.455705" lon="2.209622">
        <ele>2065.0</ele>
        <time>2009-05-16T04:32:43Z</time>
      </trkpt>
      <trkpt lat="42.455672" lon="2.209505">
        <ele>2065.0</ele>
        <time>2009-05-16T04:33:08Z</time>
      </trkpt>
      <trkpt lat="42.455698" lon="2.209388">
        <ele>2058.0</ele>
        <time>2009-05-16T04:33:23Z</time>
      </trkpt>
      <trkpt lat="42.455705" lon="2.209263">
        <ele>2064.0</ele>
        <time>2009-05-16T04:35:45Z</time>
      </trkpt>
      <trkpt lat="42.455692" lon="2.209137">
        <ele>2069.0</ele>
        <time>2009-05-16T04:35:56Z</time>
      </trkpt>
      <trkpt lat="42.455725" lon="2.209020">
        <ele>2069.0</ele>
        <time>2009-05-16T04:36:11Z</time>
      </trkpt>
      <trkpt lat="42.455758" lon="2.208894">
        <ele>2062.0</ele>
        <time>2009-05-16T04:36:25Z</time>
      </trkpt>
      <trkpt lat="42.455745" lon="2.208760">
        <ele>2062.0</ele>
        <time>2009-05-16T04:36:38Z</time>
      </trkpt>
      <trkpt lat="42.455711" lon="2.208643">
        <ele>2069.0</ele>
        <time>2009-05-16T04:36:50Z</time>
      </trkpt>
      <trkpt lat="42.455685" lon="2.208526">
        <ele>2080.0</ele>
        <time>2009-05-16T04:37:01Z</time>
      </trkpt>
      <trkpt lat="42.455672" lon="2.208400">
        <ele>2080.0</ele>
        <time>2009-05-16T04:37:14Z</time>
      </trkpt>
      <trkpt lat="42.455658" lon="2.208275">
        <ele>2080.0</ele>
        <time>2009-05-16T04:37:35Z</time>
      </trkpt>
      <trkpt lat="42.455605" lon="2.208158">
        <ele>2080.0</ele>
        <time>2009-05-16T04:38:08Z</time>
      </trkpt>
      <trkpt lat="42.455532" lon="2.208077">
        <ele>2087.0</ele>
        <time>2009-05-16T04:38:36Z</time>
      </trkpt>
      <trkpt lat="42.455465" lon="2.207987">
        <ele>2094.0</ele>
        <time>2009-05-16T04:39:02Z</time>
      </trkpt>
      <trkpt lat="42.455405" lon="2.207888">
        <ele>2094.0</ele>
        <time>2009-05-16T04:39:13Z</time>
      </trkpt>
      <trkpt lat="42.455339" lon="2.207789">
        <ele>2094.0</ele>
        <time>2009-05-16T04:39:24Z</time>
      </trkpt>
      <trkpt lat="42.455286" lon="2.207691">
        <ele>2094.0</ele>
        <time>2009-05-16T04:39:45Z</time>
      </trkpt>
      <trkpt lat="42.455219" lon="2.207592">
        <ele>2094.0</ele>
        <time>2009-05-16T04:39:58Z</time>
      </trkpt>
      <trkpt lat="42.455193" lon="2.207475">
        <ele>2094.0</ele>
        <time>2009-05-16T04:40:09Z</time>
      </trkpt>
      <trkpt lat="42.455126" lon="2.207385">
        <ele>2094.0</ele>
        <time>2009-05-16T04:40:21Z</time>
      </trkpt>
      <trkpt lat="42.455053" lon="2.207295">
        <ele>2094.0</ele>
        <time>2009-05-16T04:40:31Z</time>
      </trkpt>
      <trkpt lat="42.454973" lon="2.207233">
        <ele>2094.0</ele>
        <time>2009-05-16T04:40:42Z</time>
      </trkpt>
      <trkpt lat="42.454920" lon="2.207134">
        <ele>2099.0</ele>
        <time>2009-05-16T04:40:51Z</time>
      </trkpt>
      <trkpt lat="42.454860" lon="2.207035">
        <ele>2099.0</ele>
        <time>2009-05-16T04:41:03Z</time>
      </trkpt>
      <trkpt lat="42.454813" lon="2.206927">
        <ele>2099.0</ele>
        <time>2009-05-16T04:41:15Z</time>
      </trkpt>
      <trkpt lat="42.454747" lon="2.206828">
        <ele>2099.0</ele>
        <time>2009-05-16T04:41:26Z</time>
      </trkpt>
      <trkpt lat="42.454700" lon="2.206720">
        <ele>2099.0</ele>
        <time>2009-05-16T04:41:37Z</time>
      </trkpt>
      <trkpt lat="42.454654" lon="2.206613">
        <ele>2099.0</ele>
        <time>2009-05-16T04:41:47Z</time>
      </trkpt>
      <trkpt lat="42.454601" lon="2.206505">
        <ele>2099.0</ele>
        <time>2009-05-16T04:41:58Z</time>
      </trkpt>
      <trkpt lat="42.454534" lon="2.206406">
        <ele>2099.0</ele>
        <time>2009-05-16T04:42:11Z</time>
      </trkpt>
      <trkpt lat="42.454461" lon="2.206316">
        <ele>2099.0</ele>
        <time>2009-05-16T04:42:28Z</time>
      </trkpt>
      <trkpt lat="42.454408" lon="2.206217">
        <ele>2099.0</ele>
        <time>2009-05-16T04:42:38Z</time>
      </trkpt>
      <trkpt lat="42.454321" lon="2.206164">
        <ele>2099.0</ele>
        <time>2009-05-16T04:42:46Z</time>
      </trkpt>
      <trkpt lat="42.454221" lon="2.206173">
        <ele>2099.0</ele>
        <time>2009-05-16T04:42:56Z</time>
      </trkpt>
      <trkpt lat="42.454128" lon="2.206173">
        <ele>2099.0</ele>
        <time>2009-05-16T04:43:07Z</time>
      </trkpt>
      <trkpt lat="42.454035" lon="2.206208">
        <ele>2099.0</ele>
        <time>2009-05-16T04:43:20Z</time>
      </trkpt>
      <trkpt lat="42.453942" lon="2.206199">
        <ele>2099.0</ele>
        <time>2009-05-16T04:43:38Z</time>
      </trkpt>
      <trkpt lat="42.453849" lon="2.206226">
        <ele>2099.0</ele>
        <time>2009-05-16T04:43:53Z</time>
      </trkpt>
      <trkpt lat="42.453756" lon="2.206208">
        <ele>2099.0</ele>
        <time>2009-05-16T04:44:04Z</time>
      </trkpt>
      <trkpt lat="42.453663" lon="2.206226">
        <ele>2099.0</ele>
        <time>2009-05-16T04:44:20Z</time>
      </trkpt>
      <trkpt lat="42.453576" lon="2.206262">
        <ele>2106.0</ele>
        <time>2009-05-16T04:44:37Z</time>
      </trkpt>
      <trkpt lat="42.453490" lon="2.206298">
        <ele>2106.0</ele>
        <time>2009-05-16T04:44:47Z</time>
      </trkpt>
      <trkpt lat="42.453397" lon="2.206298">
        <ele>2106.0</ele>
        <time>2009-05-16T04:45:09Z</time>
      </trkpt>
      <trkpt lat="42.453303" lon="2.206307">
        <ele>2106.0</ele>
        <time>2009-05-16T04:45:26Z</time>
      </trkpt>
      <trkpt lat="42.453210" lon="2.206307">
        <ele>2106.0</ele>
        <time>2009-05-16T04:45:39Z</time>
      </trkpt>
      <trkpt lat="42.453130" lon="2.206244">
        <ele>2112.0</ele>
        <time>2009-05-16T04:45:56Z</time>
      </trkpt>
      <trkpt lat="42.453057" lon="2.206155">
        <ele>2112.0</ele>
        <time>2009-05-16T04:46:09Z</time>
      </trkpt>
      <trkpt lat="42.452997" lon="2.206056">
        <ele>2112.0</ele>
        <time>2009-05-16T04:46:20Z</time>
      </trkpt>
      <trkpt lat="42.452977" lon="2.205930">
        <ele>2112.0</ele>
        <time>2009-05-16T04:46:33Z</time>
      </trkpt>
      <trkpt lat="42.452931" lon="2.205813">
        <ele>2112.0</ele>
        <time>2009-05-16T04:46:45Z</time>
      </trkpt>
      <trkpt lat="42.452911" lon="2.205678">
        <ele>2112.0</ele>
        <time>2009-05-16T04:46:56Z</time>
      </trkpt>
      <trkpt lat="42.452891" lon="2.205553">
        <ele>2112.0</ele>
        <time>2009-05-16T04:47:06Z</time>
      </trkpt>
      <trkpt lat="42.452871" lon="2.205427">
        <ele>2112.0</ele>
        <time>2009-05-16T04:47:20Z</time>
      </trkpt>
      <trkpt lat="42.452831" lon="2.205310">
        <ele>2112.0</ele>
        <time>2009-05-16T04:48:13Z</time>
      </trkpt>
      <trkpt lat="42.452844" lon="2.205175">
        <ele>2112.0</ele>
        <time>2009-05-16T04:48:26Z</time>
      </trkpt>
      <trkpt lat="42.452864" lon="2.205050">
        <ele>2112.0</ele>
        <time>2009-05-16T04:48:40Z</time>
      </trkpt>
      <trkpt lat="42.452831" lon="2.204933">
        <ele>2112.0</ele>
        <time>2009-05-16T04:48:50Z</time>
      </trkpt>
      <trkpt lat="42.452811" lon="2.204798">
        <ele>2112.0</ele>
        <time>2009-05-16T04:49:13Z</time>
      </trkpt>
      <trkpt lat="42.452731" lon="2.204726">
        <ele>2112.0</ele>
        <time>2009-05-16T04:49:24Z</time>
      </trkpt>
      <trkpt lat="42.452685" lon="2.204600">
        <ele>2112.0</ele>
        <time>2009-05-16T04:49:36Z</time>
      </trkpt>
      <trkpt lat="42.452631" lon="2.204493">
        <ele>2112.0</ele>
        <time>2009-05-16T04:49:45Z</time>
      </trkpt>
      <trkpt lat="42.452538" lon="2.204457">
        <ele>2112.0</ele>
        <time>2009-05-16T04:49:54Z</time>
      </trkpt>
      <trkpt lat="42.452452" lon="2.204421">
        <ele>2112.0</ele>
        <time>2009-05-16T04:50:03Z</time>
      </trkpt>
      <trkpt lat="42.452359" lon="2.204394">
        <ele>2117.0</ele>
        <time>2009-05-16T04:50:12Z</time>
      </trkpt>
      <trkpt lat="42.452259" lon="2.204367">
        <ele>2117.0</ele>
        <time>2009-05-16T04:50:29Z</time>
      </trkpt>
      <trkpt lat="42.452166" lon="2.204367">
        <ele>2117.0</ele>
        <time>2009-05-16T04:50:40Z</time>
      </trkpt>
      <trkpt lat="42.452073" lon="2.204340">
        <ele>2122.0</ele>
        <time>2009-05-16T04:50:50Z</time>
      </trkpt>
      <trkpt lat="42.451980" lon="2.204295">
        <ele>2122.0</ele>
        <time>2009-05-16T04:51:01Z</time>
      </trkpt>
      <trkpt lat="42.451886" lon="2.204277">
        <ele>2122.0</ele>
        <time>2009-05-16T04:51:12Z</time>
      </trkpt>
      <trkpt lat="42.451787" lon="2.204268">
        <ele>2122.0</ele>
        <time>2009-05-16T04:51:23Z</time>
      </trkpt>
      <trkpt lat="42.451700" lon="2.204223">
        <ele>2122.0</ele>
        <time>2009-05-16T04:51:35Z</time>
      </trkpt>
      <trkpt lat="42.451607" lon="2.204169">
        <ele>2122.0</ele>
        <time>2009-05-16T04:51:49Z</time>
      </trkpt>
      <trkpt lat="42.451521" lon="2.204106">
        <ele>2122.0</ele>
        <time>2009-05-16T04:52:02Z</time>
      </trkpt>
      <trkpt lat="42.451467" lon="2.204008">
        <ele>2122.0</ele>
        <time>2009-05-16T04:52:16Z</time>
      </trkpt>
      <trkpt lat="42.451407" lon="2.203909">
        <ele>2122.0</ele>
        <time>2009-05-16T04:53:59Z</time>
      </trkpt>
      <trkpt lat="42.451328" lon="2.203846">
        <ele>2128.0</ele>
        <time>2009-05-16T04:54:11Z</time>
      </trkpt>
      <trkpt lat="42.451261" lon="2.203747">
        <ele>2128.0</ele>
        <time>2009-05-16T04:54:22Z</time>
      </trkpt>
      <trkpt lat="42.451188" lon="2.203666">
        <ele>2128.0</ele>
        <time>2009-05-16T04:54:33Z</time>
      </trkpt>
      <trkpt lat="42.451115" lon="2.203567">
        <ele>2128.0</ele>
        <time>2009-05-16T04:54:45Z</time>
      </trkpt>
      <trkpt lat="42.451042" lon="2.203487">
        <ele>2135.0</ele>
        <time>2009-05-16T04:54:55Z</time>
      </trkpt>
      <trkpt lat="42.450955" lon="2.203415">
        <ele>2135.0</ele>
        <time>2009-05-16T04:55:04Z</time>
      </trkpt>
      <trkpt lat="42.450875" lon="2.203343">
        <ele>2135.0</ele>
        <time>2009-05-16T04:55:13Z</time>
      </trkpt>
      <trkpt lat="42.450809" lon="2.203244">
        <ele>2142.0</ele>
        <time>2009-05-16T04:55:25Z</time>
      </trkpt>
      <trkpt lat="42.450716" lon="2.203190">
        <ele>2142.0</ele>
        <time>2009-05-16T04:55:35Z</time>
      </trkpt>
      <trkpt lat="42.450622" lon="2.203181">
        <ele>2142.0</ele>
        <time>2009-05-16T04:55:49Z</time>
      </trkpt>
      <trkpt lat="42.450529" lon="2.203154">
        <ele>2142.0</ele>
        <time>2009-05-16T04:56:06Z</time>
      </trkpt>
      <trkpt lat="42.450483" lon="2.203037">
        <ele>2142.0</ele>
        <time>2009-05-16T04:56:44Z</time>
      </trkpt>
      <trkpt lat="42.450396" lon="2.202975">
        <ele>2149.0</ele>
        <time>2009-05-16T04:56:56Z</time>
      </trkpt>
      <trkpt lat="42.450310" lon="2.202939">
        <ele>2149.0</ele>
        <time>2009-05-16T04:57:06Z</time>
      </trkpt>
      <trkpt lat="42.450257" lon="2.202822">
        <ele>2156.0</ele>
        <time>2009-05-16T04:57:16Z</time>
      </trkpt>
      <trkpt lat="42.450177" lon="2.202759">
        <ele>2156.0</ele>
        <time>2009-05-16T04:57:28Z</time>
      </trkpt>
      <trkpt lat="42.450110" lon="2.202669">
        <ele>2156.0</ele>
        <time>2009-05-16T04:57:41Z</time>
      </trkpt>
      <trkpt lat="42.450024" lon="2.202624">
        <ele>2156.0</ele>
        <time>2009-05-16T04:57:54Z</time>
      </trkpt>
      <trkpt lat="42.449951" lon="2.202552">
        <ele>2156.0</ele>
        <time>2009-05-16T04:58:06Z</time>
      </trkpt>
      <trkpt lat="42.449877" lon="2.202480">
        <ele>2156.0</ele>
        <time>2009-05-16T04:58:17Z</time>
      </trkpt>
      <trkpt lat="42.449784" lon="2.202436">
        <ele>2156.0</ele>
        <time>2009-05-16T04:58:26Z</time>
      </trkpt>
      <trkpt lat="42.449691" lon="2.202444">
        <ele>2156.0</ele>
        <time>2009-05-16T04:58:35Z</time>
      </trkpt>
      <trkpt lat="42.449605" lon="2.202382">
        <ele>2156.0</ele>
        <time>2009-05-16T04:58:46Z</time>
      </trkpt>
      <trkpt lat="42.449511" lon="2.202391">
        <ele>2163.0</ele>
        <time>2009-05-16T04:59:13Z</time>
      </trkpt>
      <trkpt lat="42.449432" lon="2.202328">
        <ele>2154.0</ele>
        <time>2009-05-16T04:59:20Z</time>
      </trkpt>
      <trkpt lat="42.449345" lon="2.202265">
        <ele>2149.0</ele>
        <time>2009-05-16T04:59:29Z</time>
      </trkpt>
      <trkpt lat="42.449252" lon="2.202220">
        <ele>2149.0</ele>
        <time>2009-05-16T04:59:37Z</time>
      </trkpt>
      <trkpt lat="42.449179" lon="2.202130">
        <ele>2149.0</ele>
        <time>2009-05-16T04:59:45Z</time>
      </trkpt>
      <trkpt lat="42.449119" lon="2.202031">
        <ele>2154.0</ele>
        <time>2009-05-16T04:59:54Z</time>
      </trkpt>
      <trkpt lat="42.449066" lon="2.201932">
        <ele>2162.0</ele>
        <time>2009-05-16T05:00:06Z</time>
      </trkpt>
      <trkpt lat="42.449006" lon="2.201834">
        <ele>2168.0</ele>
        <time>2009-05-16T05:01:13Z</time>
      </trkpt>
      <trkpt lat="42.448986" lon="2.201699">
        <ele>2168.0</ele>
        <time>2009-05-16T05:01:22Z</time>
      </trkpt>
      <trkpt lat="42.448919" lon="2.201600">
        <ele>2168.0</ele>
        <time>2009-05-16T05:01:29Z</time>
      </trkpt>
      <trkpt lat="42.448853" lon="2.201510">
        <ele>2168.0</ele>
        <time>2009-05-16T05:01:36Z</time>
      </trkpt>
      <trkpt lat="42.448786" lon="2.201420">
        <ele>2168.0</ele>
        <time>2009-05-16T05:01:44Z</time>
      </trkpt>
      <trkpt lat="42.448713" lon="2.201340">
        <ele>2168.0</ele>
        <time>2009-05-16T05:06:09Z</time>
      </trkpt>
      <trkpt lat="42.448640" lon="2.201259">
        <ele>2174.0</ele>
        <time>2009-05-16T05:06:25Z</time>
      </trkpt>
      <trkpt lat="42.448540" lon="2.201250">
        <ele>2174.0</ele>
        <time>2009-05-16T05:06:40Z</time>
      </trkpt>
      <trkpt lat="42.448454" lon="2.201286">
        <ele>2174.0</ele>
        <time>2009-05-16T05:06:54Z</time>
      </trkpt>
      <trkpt lat="42.448360" lon="2.201268">
        <ele>2174.0</ele>
        <time>2009-05-16T05:07:05Z</time>
      </trkpt>
      <trkpt lat="42.448274" lon="2.201223">
        <ele>2169.0</ele>
        <time>2009-05-16T05:07:19Z</time>
      </trkpt>
      <trkpt lat="42.448181" lon="2.201223">
        <ele>2169.0</ele>
        <time>2009-05-16T05:07:33Z</time>
      </trkpt>
      <trkpt lat="42.448088" lon="2.201250">
        <ele>2169.0</ele>
        <time>2009-05-16T05:07:57Z</time>
      </trkpt>
      <trkpt lat="42.447995" lon="2.201241">
        <ele>2169.0</ele>
        <time>2009-05-16T05:08:19Z</time>
      </trkpt>
      <trkpt lat="42.447895" lon="2.201259">
        <ele>2169.0</ele>
        <time>2009-05-16T05:08:32Z</time>
      </trkpt>
      <trkpt lat="42.447802" lon="2.201232">
        <ele>2169.0</ele>
        <time>2009-05-16T05:08:40Z</time>
      </trkpt>
      <trkpt lat="42.447722" lon="2.201169">
        <ele>2169.0</ele>
        <time>2009-05-16T05:08:48Z</time>
      </trkpt>
      <trkpt lat="42.447642" lon="2.201106">
        <ele>2163.0</ele>
        <time>2009-05-16T05:08:58Z</time>
      </trkpt>
      <trkpt lat="42.447569" lon="2.201016">
        <ele>2163.0</ele>
        <time>2009-05-16T05:09:08Z</time>
      </trkpt>
      <trkpt lat="42.447496" lon="2.200926">
        <ele>2163.0</ele>
        <time>2009-05-16T05:09:16Z</time>
      </trkpt>
      <trkpt lat="42.447422" lon="2.200854">
        <ele>2163.0</ele>
        <time>2009-05-16T05:09:23Z</time>
      </trkpt>
      <trkpt lat="42.447349" lon="2.200774">
        <ele>2163.0</ele>
        <time>2009-05-16T05:09:32Z</time>
      </trkpt>
      <trkpt lat="42.447249" lon="2.200738">
        <ele>2163.0</ele>
        <time>2009-05-16T05:09:41Z</time>
      </trkpt>
      <trkpt lat="42.447163" lon="2.200702">
        <ele>2163.0</ele>
        <time>2009-05-16T05:09:50Z</time>
      </trkpt>
      <trkpt lat="42.447110" lon="2.200603">
        <ele>2163.0</ele>
        <time>2009-05-16T05:09:59Z</time>
      </trkpt>
      <trkpt lat="42.447043" lon="2.200513">
        <ele>2163.0</ele>
        <time>2009-05-16T05:10:07Z</time>
      </trkpt>
      <trkpt lat="42.446957" lon="2.200441">
        <ele>2163.0</ele>
        <time>2009-05-16T05:10:14Z</time>
      </trkpt>
      <trkpt lat="42.446870" lon="2.200405">
        <ele>2163.0</ele>
        <time>2009-05-16T05:10:21Z</time>
      </trkpt>
      <trkpt lat="42.446804" lon="2.200315">
        <ele>2163.0</ele>
        <time>2009-05-16T05:10:30Z</time>
      </trkpt>
      <trkpt lat="42.446750" lon="2.200199">
        <ele>2163.0</ele>
        <time>2009-05-16T05:10:38Z</time>
      </trkpt>
      <trkpt lat="42.446711" lon="2.200082">
        <ele>2163.0</ele>
        <time>2009-05-16T05:10:46Z</time>
      </trkpt>
      <trkpt lat="42.446671" lon="2.199956">
        <ele>2163.0</ele>
        <time>2009-05-16T05:10:55Z</time>
      </trkpt>
      <trkpt lat="42.446604" lon="2.199866">
        <ele>2163.0</ele>
        <time>2009-05-16T05:11:03Z</time>
      </trkpt>
      <trkpt lat="42.446531" lon="2.199777">
        <ele>2163.0</ele>
        <time>2009-05-16T05:11:13Z</time>
      </trkpt>
      <trkpt lat="42.446458" lon="2.199696">
        <ele>2163.0</ele>
        <time>2009-05-16T05:11:21Z</time>
      </trkpt>
      <trkpt lat="42.446378" lon="2.199633">
        <ele>2163.0</ele>
        <time>2009-05-16T05:11:30Z</time>
      </trkpt>
      <trkpt lat="42.446291" lon="2.199588">
        <ele>2163.0</ele>
        <time>2009-05-16T05:11:39Z</time>
      </trkpt>
      <trkpt lat="42.446198" lon="2.199525">
        <ele>2163.0</ele>
        <time>2009-05-16T05:11:51Z</time>
      </trkpt>
      <trkpt lat="42.446105" lon="2.199534">
        <ele>2163.0</ele>
        <time>2009-05-16T05:12:01Z</time>
      </trkpt>
      <trkpt lat="42.446025" lon="2.199471">
        <ele>2163.0</ele>
        <time>2009-05-16T05:13:22Z</time>
      </trkpt>
      <trkpt lat="42.445945" lon="2.199399">
        <ele>2163.0</ele>
        <time>2009-05-16T05:13:37Z</time>
      </trkpt>
      <trkpt lat="42.445852" lon="2.199345">
        <ele>2163.0</ele>
        <time>2009-05-16T05:13:47Z</time>
      </trkpt>
      <trkpt lat="42.445766" lon="2.199381">
        <ele>2163.0</ele>
        <time>2009-05-16T05:13:57Z</time>
      </trkpt>
      <trkpt lat="42.445673" lon="2.199381">
        <ele>2163.0</ele>
        <time>2009-05-16T05:14:12Z</time>
      </trkpt>
      <trkpt lat="42.445586" lon="2.199435">
        <ele>2163.0</ele>
        <time>2009-05-16T05:14:21Z</time>
      </trkpt>
      <trkpt lat="42.445500" lon="2.199471">
        <ele>2163.0</ele>
        <time>2009-05-16T05:14:30Z</time>
      </trkpt>
      <trkpt lat="42.445407" lon="2.199489">
        <ele>2163.0</ele>
        <time>2009-05-16T05:14:38Z</time>
      </trkpt>
      <trkpt lat="42.445307" lon="2.199480">
        <ele>2163.0</ele>
        <time>2009-05-16T05:14:50Z</time>
      </trkpt>
      <trkpt lat="42.445214" lon="2.199462">
        <ele>2163.0</ele>
        <time>2009-05-16T05:15:01Z</time>
      </trkpt>
      <trkpt lat="42.445120" lon="2.199444">
        <ele>2163.0</ele>
        <time>2009-05-16T05:15:23Z</time>
      </trkpt>
      <trkpt lat="42.445027" lon="2.199444">
        <ele>2163.0</ele>
        <time>2009-05-16T05:15:35Z</time>
      </trkpt>
      <trkpt lat="42.444934" lon="2.199453">
        <ele>2163.0</ele>
        <time>2009-05-16T05:15:44Z</time>
      </trkpt>
      <trkpt lat="42.444834" lon="2.199471">
        <ele>2163.0</ele>
        <time>2009-05-16T05:15:54Z</time>
      </trkpt>
      <trkpt lat="42.444741" lon="2.199498">
        <ele>2168.0</ele>
        <time>2009-05-16T05:16:03Z</time>
      </trkpt>
      <trkpt lat="42.444648" lon="2.199525">
        <ele>2168.0</ele>
        <time>2009-05-16T05:16:19Z</time>
      </trkpt>
      <trkpt lat="42.444555" lon="2.199516">
        <ele>2175.0</ele>
        <time>2009-05-16T05:16:38Z</time>
      </trkpt>
      <trkpt lat="42.444468" lon="2.199480">
        <ele>2175.0</ele>
        <time>2009-05-16T05:16:53Z</time>
      </trkpt>
      <trkpt lat="42.444382" lon="2.199444">
        <ele>2182.0</ele>
        <time>2009-05-16T05:17:07Z</time>
      </trkpt>
      <trkpt lat="42.444295" lon="2.199390">
        <ele>2182.0</ele>
        <time>2009-05-16T05:17:21Z</time>
      </trkpt>
      <trkpt lat="42.444209" lon="2.199354">
        <ele>2182.0</ele>
        <time>2009-05-16T05:17:33Z</time>
      </trkpt>
      <trkpt lat="42.444116" lon="2.199336">
        <ele>2182.0</ele>
        <time>2009-05-16T05:17:46Z</time>
      </trkpt>
      <trkpt lat="42.444023" lon="2.199327">
        <ele>2189.0</ele>
        <time>2009-05-16T05:18:06Z</time>
      </trkpt>
      <trkpt lat="42.443936" lon="2.199282">
        <ele>2189.0</ele>
        <time>2009-05-16T05:18:18Z</time>
      </trkpt>
      <trkpt lat="42.443843" lon="2.199255">
        <ele>2189.0</ele>
        <time>2009-05-16T05:18:26Z</time>
      </trkpt>
      <trkpt lat="42.443750" lon="2.199211">
        <ele>2189.0</ele>
        <time>2009-05-16T05:18:34Z</time>
      </trkpt>
      <trkpt lat="42.443670" lon="2.199148">
        <ele>2189.0</ele>
        <time>2009-05-16T05:18:43Z</time>
      </trkpt>
      <trkpt lat="42.443617" lon="2.199049">
        <ele>2189.0</ele>
        <time>2009-05-16T05:18:53Z</time>
      </trkpt>
      <trkpt lat="42.443530" lon="2.198986">
        <ele>2189.0</ele>
        <time>2009-05-16T05:19:02Z</time>
      </trkpt>
      <trkpt lat="42.443437" lon="2.198977">
        <ele>2189.0</ele>
        <time>2009-05-16T05:19:11Z</time>
      </trkpt>
      <trkpt lat="42.443351" lon="2.198932">
        <ele>2189.0</ele>
        <time>2009-05-16T05:19:24Z</time>
      </trkpt>
      <trkpt lat="42.443258" lon="2.198914">
        <ele>2189.0</ele>
        <time>2009-05-16T05:19:33Z</time>
      </trkpt>
      <trkpt lat="42.443158" lon="2.198887">
        <ele>2189.0</ele>
        <time>2009-05-16T05:19:43Z</time>
      </trkpt>
      <trkpt lat="42.443071" lon="2.198851">
        <ele>2189.0</ele>
        <time>2009-05-16T05:19:52Z</time>
      </trkpt>
      <trkpt lat="42.442978" lon="2.198824">
        <ele>2189.0</ele>
        <time>2009-05-16T05:20:01Z</time>
      </trkpt>
      <trkpt lat="42.442885" lon="2.198797">
        <ele>2189.0</ele>
        <time>2009-05-16T05:20:10Z</time>
      </trkpt>
      <trkpt lat="42.442798" lon="2.198761">
        <ele>2196.0</ele>
        <time>2009-05-16T05:20:19Z</time>
      </trkpt>
      <trkpt lat="42.442705" lon="2.198734">
        <ele>2196.0</ele>
        <time>2009-05-16T05:20:29Z</time>
      </trkpt>
      <trkpt lat="42.442632" lon="2.198663">
        <ele>2196.0</ele>
        <time>2009-05-16T05:20:44Z</time>
      </trkpt>
      <trkpt lat="42.442539" lon="2.198609">
        <ele>2196.0</ele>
        <time>2009-05-16T05:21:00Z</time>
      </trkpt>
      <trkpt lat="42.442446" lon="2.198582">
        <ele>2201.0</ele>
        <time>2009-05-16T05:21:13Z</time>
      </trkpt>
      <trkpt lat="42.442353" lon="2.198564">
        <ele>2201.0</ele>
        <time>2009-05-16T05:21:37Z</time>
      </trkpt>
      <trkpt lat="42.442260" lon="2.198510">
        <ele>2201.0</ele>
        <time>2009-05-16T05:21:54Z</time>
      </trkpt>
      <trkpt lat="42.442166" lon="2.198456">
        <ele>2207.0</ele>
        <time>2009-05-16T05:22:09Z</time>
      </trkpt>
      <trkpt lat="42.442073" lon="2.198438">
        <ele>2207.0</ele>
        <time>2009-05-16T05:22:21Z</time>
      </trkpt>
      <trkpt lat="42.441973" lon="2.198438">
        <ele>2207.0</ele>
        <time>2009-05-16T05:22:31Z</time>
      </trkpt>
      <trkpt lat="42.441880" lon="2.198465">
        <ele>2207.0</ele>
        <time>2009-05-16T05:22:42Z</time>
      </trkpt>
      <trkpt lat="42.441794" lon="2.198501">
        <ele>2216.0</ele>
        <time>2009-05-16T05:22:52Z</time>
      </trkpt>
      <trkpt lat="42.441701" lon="2.198483">
        <ele>2216.0</ele>
        <time>2009-05-16T05:23:04Z</time>
      </trkpt>
      <trkpt lat="42.441607" lon="2.198492">
        <ele>2216.0</ele>
        <time>2009-05-16T05:23:17Z</time>
      </trkpt>
      <trkpt lat="42.441514" lon="2.198501">
        <ele>2216.0</ele>
        <time>2009-05-16T05:23:29Z</time>
      </trkpt>
      <trkpt lat="42.441401" lon="2.198501">
        <ele>2219.0</ele>
        <time>2009-05-16T05:38:20Z</time>
      </trkpt>
      <trkpt lat="42.441301" lon="2.198519">
        <ele>2219.0</ele>
        <time>2009-05-16T05:43:55Z</time>
      </trkpt>
      <trkpt lat="42.441202" lon="2.198555">
        <ele>2219.0</ele>
        <time>2009-05-16T05:44:04Z</time>
      </trkpt>
      <trkpt lat="42.441115" lon="2.198591">
        <ele>2219.0</ele>
        <time>2009-05-16T05:44:13Z</time>
      </trkpt>
      <trkpt lat="42.441022" lon="2.198609">
        <ele>2219.0</ele>
        <time>2009-05-16T05:44:23Z</time>
      </trkpt>
      <trkpt lat="42.440929" lon="2.198609">
        <ele>2219.0</ele>
        <time>2009-05-16T05:44:32Z</time>
      </trkpt>
      <trkpt lat="42.440836" lon="2.198600">
        <ele>2219.0</ele>
        <time>2009-05-16T05:44:48Z</time>
      </trkpt>
      <trkpt lat="42.440742" lon="2.198609">
        <ele>2229.0</ele>
        <time>2009-05-16T05:45:09Z</time>
      </trkpt>
      <trkpt lat="42.440669" lon="2.198699">
        <ele>2229.0</ele>
        <time>2009-05-16T05:45:23Z</time>
      </trkpt>
      <trkpt lat="42.440583" lon="2.198761">
        <ele>2229.0</ele>
        <time>2009-05-16T05:45:35Z</time>
      </trkpt>
      <trkpt lat="42.440510" lon="2.198833">
        <ele>2237.0</ele>
        <time>2009-05-16T05:45:45Z</time>
      </trkpt>
      <trkpt lat="42.440463" lon="2.198941">
        <ele>2237.0</ele>
        <time>2009-05-16T05:45:58Z</time>
      </trkpt>
      <trkpt lat="42.440416" lon="2.199049">
        <ele>2237.0</ele>
        <time>2009-05-16T05:46:12Z</time>
      </trkpt>
      <trkpt lat="42.440416" lon="2.199202">
        <ele>2248.0</ele>
        <time>2009-05-16T05:46:33Z</time>
      </trkpt>
      <trkpt lat="42.440343" lon="2.199273">
        <ele>2248.0</ele>
        <time>2009-05-16T05:46:59Z</time>
      </trkpt>
      <trkpt lat="42.440270" lon="2.199202">
        <ele>2239.0</ele>
        <time>2009-05-16T05:47:10Z</time>
      </trkpt>
      <trkpt lat="42.440190" lon="2.199264">
        <ele>2239.0</ele>
        <time>2009-05-16T05:47:24Z</time>
      </trkpt>
      <trkpt lat="42.440104" lon="2.199309">
        <ele>2239.0</ele>
        <time>2009-05-16T05:47:39Z</time>
      </trkpt>
      <trkpt lat="42.440017" lon="2.199372">
        <ele>2239.0</ele>
        <time>2009-05-16T05:47:53Z</time>
      </trkpt>
      <trkpt lat="42.439931" lon="2.199426">
        <ele>2239.0</ele>
        <time>2009-05-16T05:48:05Z</time>
      </trkpt>
      <trkpt lat="42.439838" lon="2.199471">
        <ele>2239.0</ele>
        <time>2009-05-16T05:48:16Z</time>
      </trkpt>
      <trkpt lat="42.439744" lon="2.199498">
        <ele>2239.0</ele>
        <time>2009-05-16T05:48:29Z</time>
      </trkpt>
      <trkpt lat="42.439658" lon="2.199552">
        <ele>2244.0</ele>
        <time>2009-05-16T05:48:42Z</time>
      </trkpt>
      <trkpt lat="42.439558" lon="2.199534">
        <ele>2244.0</ele>
        <time>2009-05-16T05:48:53Z</time>
      </trkpt>
      <trkpt lat="42.439458" lon="2.199543">
        <ele>2244.0</ele>
        <time>2009-05-16T05:49:07Z</time>
      </trkpt>
      <trkpt lat="42.439365" lon="2.199552">
        <ele>2244.0</ele>
        <time>2009-05-16T05:49:18Z</time>
      </trkpt>
      <trkpt lat="42.439272" lon="2.199516">
        <ele>2244.0</ele>
        <time>2009-05-16T05:49:28Z</time>
      </trkpt>
      <trkpt lat="42.439179" lon="2.199507">
        <ele>2244.0</ele>
        <time>2009-05-16T05:50:00Z</time>
      </trkpt>
      <trkpt lat="42.439079" lon="2.199489">
        <ele>2244.0</ele>
        <time>2009-05-16T05:50:09Z</time>
      </trkpt>
      <trkpt lat="42.438986" lon="2.199462">
        <ele>2244.0</ele>
        <time>2009-05-16T05:50:18Z</time>
      </trkpt>
      <trkpt lat="42.438893" lon="2.199435">
        <ele>2244.0</ele>
        <time>2009-05-16T05:50:26Z</time>
      </trkpt>
      <trkpt lat="42.438800" lon="2.199408">
        <ele>2244.0</ele>
        <time>2009-05-16T05:50:34Z</time>
      </trkpt>
      <trkpt lat="42.438713" lon="2.199372">
        <ele>2244.0</ele>
        <time>2009-05-16T05:50:56Z</time>
      </trkpt>
      <trkpt lat="42.438640" lon="2.199282">
        <ele>2244.0</ele>
        <time>2009-05-16T05:51:07Z</time>
      </trkpt>
      <trkpt lat="42.438547" lon="2.199282">
        <ele>2244.0</ele>
        <time>2009-05-16T05:51:26Z</time>
      </trkpt>
      <trkpt lat="42.438500" lon="2.199390">
        <ele>2244.0</ele>
        <time>2009-05-16T05:52:53Z</time>
      </trkpt>
      <trkpt lat="42.438434" lon="2.199480">
        <ele>2244.0</ele>
        <time>2009-05-16T05:53:06Z</time>
      </trkpt>
      <trkpt lat="42.438340" lon="2.199516">
        <ele>2244.0</ele>
        <time>2009-05-16T05:53:22Z</time>
      </trkpt>
      <trkpt lat="42.438287" lon="2.199615">
        <ele>2244.0</ele>
        <time>2009-05-16T05:53:32Z</time>
      </trkpt>
      <trkpt lat="42.438201" lon="2.199669">
        <ele>2244.0</ele>
        <time>2009-05-16T05:53:48Z</time>
      </trkpt>
      <trkpt lat="42.438134" lon="2.199777">
        <ele>2244.0</ele>
        <time>2009-05-16T05:54:24Z</time>
      </trkpt>
      <trkpt lat="42.438121" lon="2.199911">
        <ele>2250.0</ele>
        <time>2009-05-16T05:54:34Z</time>
      </trkpt>
      <trkpt lat="42.438101" lon="2.200046">
        <ele>2250.0</ele>
        <time>2009-05-16T05:54:42Z</time>
      </trkpt>
      <trkpt lat="42.438114" lon="2.200181">
        <ele>2250.0</ele>
        <time>2009-05-16T05:55:00Z</time>
      </trkpt>
      <trkpt lat="42.438108" lon="2.200307">
        <ele>2255.0</ele>
        <time>2009-05-16T05:55:12Z</time>
      </trkpt>
      <trkpt lat="42.438094" lon="2.200441">
        <ele>2263.0</ele>
        <time>2009-05-16T05:55:28Z</time>
      </trkpt>
      <trkpt lat="42.438134" lon="2.200558">
        <ele>2263.0</ele>
        <time>2009-05-16T05:55:50Z</time>
      </trkpt>
      <trkpt lat="42.438088" lon="2.200666">
        <ele>2263.0</ele>
        <time>2009-05-16T05:56:04Z</time>
      </trkpt>
      <trkpt lat="42.438028" lon="2.200765">
        <ele>2263.0</ele>
        <time>2009-05-16T05:56:19Z</time>
      </trkpt>
      <trkpt lat="42.437981" lon="2.200881">
        <ele>2263.0</ele>
        <time>2009-05-16T05:56:35Z</time>
      </trkpt>
      <trkpt lat="42.437941" lon="2.201007">
        <ele>2263.0</ele>
        <time>2009-05-16T05:56:46Z</time>
      </trkpt>
      <trkpt lat="42.437915" lon="2.201124">
        <ele>2272.0</ele>
        <time>2009-05-16T05:57:04Z</time>
      </trkpt>
      <trkpt lat="42.437855" lon="2.201223">
        <ele>2277.0</ele>
        <time>2009-05-16T05:57:26Z</time>
      </trkpt>
      <trkpt lat="42.437855" lon="2.201358">
        <ele>2297.0</ele>
        <time>2009-05-16T05:57:38Z</time>
      </trkpt>
      <trkpt lat="42.437855" lon="2.201528">
        <ele>2283.0</ele>
        <time>2009-05-16T05:58:41Z</time>
      </trkpt>
      <trkpt lat="42.437861" lon="2.201654">
        <ele>2283.0</ele>
        <time>2009-05-16T05:58:47Z</time>
      </trkpt>
      <trkpt lat="42.437768" lon="2.201645">
        <ele>2294.0</ele>
        <time>2009-05-16T05:58:55Z</time>
      </trkpt>
      <trkpt lat="42.437708" lon="2.201744">
        <ele>2300.0</ele>
        <time>2009-05-16T05:59:15Z</time>
      </trkpt>
      <trkpt lat="42.437628" lon="2.201816">
        <ele>2300.0</ele>
        <time>2009-05-16T05:59:42Z</time>
      </trkpt>
      <trkpt lat="42.437628" lon="2.201941">
        <ele>2300.0</ele>
        <time>2009-05-16T05:59:57Z</time>
      </trkpt>
      <trkpt lat="42.437628" lon="2.202067">
        <ele>2300.0</ele>
        <time>2009-05-16T06:00:06Z</time>
      </trkpt>
      <trkpt lat="42.437542" lon="2.202103">
        <ele>2300.0</ele>
        <time>2009-05-16T06:00:24Z</time>
      </trkpt>
      <trkpt lat="42.437402" lon="2.202193">
        <ele>2312.0</ele>
        <time>2009-05-16T06:01:53Z</time>
      </trkpt>
      <trkpt lat="42.437356" lon="2.202301">
        <ele>2322.0</ele>
        <time>2009-05-16T06:02:17Z</time>
      </trkpt>
      <trkpt lat="42.437362" lon="2.202427">
        <ele>2322.0</ele>
        <time>2009-05-16T06:02:29Z</time>
      </trkpt>
      <trkpt lat="42.437316" lon="2.202534">
        <ele>2316.0</ele>
        <time>2009-05-16T06:02:58Z</time>
      </trkpt>
      <trkpt lat="42.437243" lon="2.202633">
        <ele>2316.0</ele>
        <time>2009-05-16T06:03:11Z</time>
      </trkpt>
      <trkpt lat="42.437163" lon="2.202822">
        <ele>2310.0</ele>
        <time>2009-05-16T06:03:35Z</time>
      </trkpt>
      <trkpt lat="42.437123" lon="2.202948">
        <ele>2310.0</ele>
        <time>2009-05-16T06:03:50Z</time>
      </trkpt>
      <trkpt lat="42.437083" lon="2.203064">
        <ele>2310.0</ele>
        <time>2009-05-16T06:04:05Z</time>
      </trkpt>
      <trkpt lat="42.437103" lon="2.203190">
        <ele>2287.0</ele>
        <time>2009-05-16T06:04:24Z</time>
      </trkpt>
      <trkpt lat="42.437169" lon="2.203316">
        <ele>2276.0</ele>
        <time>2009-05-16T06:04:34Z</time>
      </trkpt>
      <trkpt lat="42.437236" lon="2.203451">
        <ele>2289.0</ele>
        <time>2009-05-16T06:04:54Z</time>
      </trkpt>
      <trkpt lat="42.437322" lon="2.203531">
        <ele>2289.0</ele>
        <time>2009-05-16T06:04:58Z</time>
      </trkpt>
      <trkpt lat="42.437316" lon="2.203666">
        <ele>2300.0</ele>
        <time>2009-05-16T06:05:39Z</time>
      </trkpt>
      <trkpt lat="42.437236" lon="2.203729">
        <ele>2300.0</ele>
        <time>2009-05-16T06:05:51Z</time>
      </trkpt>
      <trkpt lat="42.437276" lon="2.203846">
        <ele>2300.0</ele>
        <time>2009-05-16T06:05:56Z</time>
      </trkpt>
      <trkpt lat="42.437216" lon="2.204043">
        <ele>2313.0</ele>
        <time>2009-05-16T06:06:21Z</time>
      </trkpt>
      <trkpt lat="42.437263" lon="2.204133">
        <ele>2339.0</ele>
        <time>2009-05-16T06:07:32Z</time>
      </trkpt>
      <trkpt lat="42.437309" lon="2.204259">
        <ele>2357.0</ele>
        <time>2009-05-16T06:08:00Z</time>
      </trkpt>
      <trkpt lat="42.437316" lon="2.204385">
        <ele>2357.0</ele>
        <time>2009-05-16T06:08:08Z</time>
      </trkpt>
      <trkpt lat="42.437316" lon="2.204511">
        <ele>2351.0</ele>
        <time>2009-05-16T06:08:17Z</time>
      </trkpt>
      <trkpt lat="42.437376" lon="2.204556">
        <ele>2380.0</ele>
        <time>2009-05-16T06:09:38Z</time>
      </trkpt>
      <trkpt lat="42.437396" lon="2.204681">
        <ele>2380.0</ele>
        <time>2009-05-16T06:10:09Z</time>
      </trkpt>
      <trkpt lat="42.437356" lon="2.204798">
        <ele>2380.0</ele>
        <time>2009-05-16T06:10:25Z</time>
      </trkpt>
      <trkpt lat="42.437342" lon="2.204924">
        <ele>2388.0</ele>
        <time>2009-05-16T06:11:16Z</time>
      </trkpt>
      <trkpt lat="42.437376" lon="2.205041">
        <ele>2388.0</ele>
        <time>2009-05-16T06:11:44Z</time>
      </trkpt>
      <trkpt lat="42.437322" lon="2.205139">
        <ele>2396.0</ele>
        <time>2009-05-16T06:13:03Z</time>
      </trkpt>
      <trkpt lat="42.437369" lon="2.205256">
        <ele>2396.0</ele>
        <time>2009-05-16T06:13:12Z</time>
      </trkpt>
      <trkpt lat="42.437336" lon="2.205373">
        <ele>2396.0</ele>
        <time>2009-05-16T06:13:38Z</time>
      </trkpt>
      <trkpt lat="42.437296" lon="2.205490">
        <ele>2406.0</ele>
        <time>2009-05-16T06:14:05Z</time>
      </trkpt>
      <trkpt lat="42.437296" lon="2.205616">
        <ele>2406.0</ele>
        <time>2009-05-16T06:14:21Z</time>
      </trkpt>
      <trkpt lat="42.437269" lon="2.205741">
        <ele>2406.0</ele>
        <time>2009-05-16T06:14:57Z</time>
      </trkpt>
      <trkpt lat="42.437269" lon="2.205876">
        <ele>2406.0</ele>
        <time>2009-05-16T06:15:22Z</time>
      </trkpt>
      <trkpt lat="42.437269" lon="2.206002">
        <ele>2412.0</ele>
        <time>2009-05-16T06:15:33Z</time>
      </trkpt>
      <trkpt lat="42.437243" lon="2.206119">
        <ele>2412.0</ele>
        <time>2009-05-16T06:15:54Z</time>
      </trkpt>
      <trkpt lat="42.437156" lon="2.206173">
        <ele>2412.0</ele>
        <time>2009-05-16T06:16:09Z</time>
      </trkpt>
      <trkpt lat="42.437123" lon="2.206289">
        <ele>2412.0</ele>
        <time>2009-05-16T06:16:21Z</time>
      </trkpt>
      <trkpt lat="42.437030" lon="2.206289">
        <ele>2422.0</ele>
        <time>2009-05-16T06:16:36Z</time>
      </trkpt>
      <trkpt lat="42.436976" lon="2.206388">
        <ele>2422.0</ele>
        <time>2009-05-16T06:16:55Z</time>
      </trkpt>
      <trkpt lat="42.436963" lon="2.206514">
        <ele>2422.0</ele>
        <time>2009-05-16T06:17:05Z</time>
      </trkpt>
      <trkpt lat="42.436870" lon="2.206514">
        <ele>2428.0</ele>
        <time>2009-05-16T06:17:41Z</time>
      </trkpt>
      <trkpt lat="42.436817" lon="2.206613">
        <ele>2428.0</ele>
        <time>2009-05-16T06:19:00Z</time>
      </trkpt>
      <trkpt lat="42.436810" lon="2.206747">
        <ele>2428.0</ele>
        <time>2009-05-16T06:19:09Z</time>
      </trkpt>
      <trkpt lat="42.436777" lon="2.206873">
        <ele>2436.0</ele>
        <time>2009-05-16T06:19:22Z</time>
      </trkpt>
      <trkpt lat="42.436684" lon="2.206918">
        <ele>2436.0</ele>
        <time>2009-05-16T06:19:41Z</time>
      </trkpt>
      <trkpt lat="42.436597" lon="2.207035">
        <ele>2429.0</ele>
        <time>2009-05-16T06:20:32Z</time>
      </trkpt>
      <trkpt lat="42.436544" lon="2.207134">
        <ele>2440.0</ele>
        <time>2009-05-16T06:20:47Z</time>
      </trkpt>
      <trkpt lat="42.436484" lon="2.207233">
        <ele>2440.0</ele>
        <time>2009-05-16T06:21:01Z</time>
      </trkpt>
      <trkpt lat="42.436437" lon="2.207340">
        <ele>2446.0</ele>
        <time>2009-05-16T06:21:13Z</time>
      </trkpt>
      <trkpt lat="42.436378" lon="2.207493">
        <ele>2452.0</ele>
        <time>2009-05-16T06:21:54Z</time>
      </trkpt>
      <trkpt lat="42.436331" lon="2.207610">
        <ele>2445.0</ele>
        <time>2009-05-16T06:24:36Z</time>
      </trkpt>
      <trkpt lat="42.436244" lon="2.207655">
        <ele>2445.0</ele>
        <time>2009-05-16T06:24:46Z</time>
      </trkpt>
      <trkpt lat="42.436151" lon="2.207637">
        <ele>2445.0</ele>
        <time>2009-05-16T06:24:56Z</time>
      </trkpt>
      <trkpt lat="42.436078" lon="2.207727">
        <ele>2445.0</ele>
        <time>2009-05-16T06:25:09Z</time>
      </trkpt>
      <trkpt lat="42.436025" lon="2.207834">
        <ele>2445.0</ele>
        <time>2009-05-16T06:25:44Z</time>
      </trkpt>
      <trkpt lat="42.435932" lon="2.207861">
        <ele>2445.0</ele>
        <time>2009-05-16T06:25:53Z</time>
      </trkpt>
      <trkpt lat="42.435832" lon="2.207852">
        <ele>2452.0</ele>
        <time>2009-05-16T06:26:02Z</time>
      </trkpt>
      <trkpt lat="42.435759" lon="2.207924">
        <ele>2452.0</ele>
        <time>2009-05-16T06:26:15Z</time>
      </trkpt>
      <trkpt lat="42.435672" lon="2.207960">
        <ele>2452.0</ele>
        <time>2009-05-16T06:26:24Z</time>
      </trkpt>
      <trkpt lat="42.435586" lon="2.208005">
        <ele>2452.0</ele>
        <time>2009-05-16T06:26:34Z</time>
      </trkpt>
      <trkpt lat="42.435493" lon="2.208095">
        <ele>2452.0</ele>
        <time>2009-05-16T06:26:49Z</time>
      </trkpt>
      <trkpt lat="42.435399" lon="2.208122">
        <ele>2452.0</ele>
        <time>2009-05-16T06:26:57Z</time>
      </trkpt>
      <trkpt lat="42.435313" lon="2.208077">
        <ele>2458.0</ele>
        <time>2009-05-16T06:27:04Z</time>
      </trkpt>
      <trkpt lat="42.435240" lon="2.208158">
        <ele>2458.0</ele>
        <time>2009-05-16T06:27:17Z</time>
      </trkpt>
      <trkpt lat="42.435173" lon="2.208257">
        <ele>2458.0</ele>
        <time>2009-05-16T06:27:28Z</time>
      </trkpt>
      <trkpt lat="42.435073" lon="2.208302">
        <ele>2458.0</ele>
        <time>2009-05-16T06:27:38Z</time>
      </trkpt>
      <trkpt lat="42.435000" lon="2.208382">
        <ele>2449.0</ele>
        <time>2009-05-16T06:27:52Z</time>
      </trkpt>
      <trkpt lat="42.434934" lon="2.208472">
        <ele>2449.0</ele>
        <time>2009-05-16T06:28:00Z</time>
      </trkpt>
      <trkpt lat="42.434834" lon="2.208499">
        <ele>2449.0</ele>
        <time>2009-05-16T06:28:13Z</time>
      </trkpt>
      <trkpt lat="42.434761" lon="2.208571">
        <ele>2449.0</ele>
        <time>2009-05-16T06:28:21Z</time>
      </trkpt>
      <trkpt lat="42.434674" lon="2.208625">
        <ele>2455.0</ele>
        <time>2009-05-16T06:28:33Z</time>
      </trkpt>
      <trkpt lat="42.434588" lon="2.208670">
        <ele>2455.0</ele>
        <time>2009-05-16T06:28:43Z</time>
      </trkpt>
      <trkpt lat="42.434561" lon="2.208796">
        <ele>2455.0</ele>
        <time>2009-05-16T06:28:54Z</time>
      </trkpt>
      <trkpt lat="42.434468" lon="2.208832">
        <ele>2455.0</ele>
        <time>2009-05-16T06:29:06Z</time>
      </trkpt>
      <trkpt lat="42.434461" lon="2.208957">
        <ele>2455.0</ele>
        <time>2009-05-16T06:29:13Z</time>
      </trkpt>
      <trkpt lat="42.434381" lon="2.209020">
        <ele>2455.0</ele>
        <time>2009-05-16T06:29:27Z</time>
      </trkpt>
      <trkpt lat="42.434288" lon="2.209047">
        <ele>2460.0</ele>
        <time>2009-05-16T06:29:39Z</time>
      </trkpt>
      <trkpt lat="42.434242" lon="2.209155">
        <ele>2460.0</ele>
        <time>2009-05-16T06:29:50Z</time>
      </trkpt>
      <trkpt lat="42.434215" lon="2.209272">
        <ele>2453.0</ele>
        <time>2009-05-16T06:30:02Z</time>
      </trkpt>
      <trkpt lat="42.434175" lon="2.209406">
        <ele>2453.0</ele>
        <time>2009-05-16T06:30:15Z</time>
      </trkpt>
      <trkpt lat="42.434068" lon="2.209397">
        <ele>2453.0</ele>
        <time>2009-05-16T06:30:26Z</time>
      </trkpt>
      <trkpt lat="42.433995" lon="2.209487">
        <ele>2463.0</ele>
        <time>2009-05-16T06:30:35Z</time>
      </trkpt>
      <trkpt lat="42.433902" lon="2.209523">
        <ele>2463.0</ele>
        <time>2009-05-16T06:30:51Z</time>
      </trkpt>
      <trkpt lat="42.433842" lon="2.209631">
        <ele>2463.0</ele>
        <time>2009-05-16T06:31:06Z</time>
      </trkpt>
      <trkpt lat="42.433749" lon="2.209685">
        <ele>2475.0</ele>
        <time>2009-05-16T06:31:21Z</time>
      </trkpt>
      <trkpt lat="42.433702" lon="2.209802">
        <ele>2475.0</ele>
        <time>2009-05-16T06:31:33Z</time>
      </trkpt>
      <trkpt lat="42.433636" lon="2.209909">
        <ele>2475.0</ele>
        <time>2009-05-16T06:32:35Z</time>
      </trkpt>
      <trkpt lat="42.433609" lon="2.210044">
        <ele>2475.0</ele>
        <time>2009-05-16T06:32:52Z</time>
      </trkpt>
      <trkpt lat="42.433556" lon="2.210143">
        <ele>2475.0</ele>
        <time>2009-05-16T06:33:08Z</time>
      </trkpt>
      <trkpt lat="42.433470" lon="2.210188">
        <ele>2484.0</ele>
        <time>2009-05-16T06:33:22Z</time>
      </trkpt>
      <trkpt lat="42.433423" lon="2.210296">
        <ele>2484.0</ele>
        <time>2009-05-16T06:33:41Z</time>
      </trkpt>
      <trkpt lat="42.433337" lon="2.210359">
        <ele>2484.0</ele>
        <time>2009-05-16T06:33:52Z</time>
      </trkpt>
      <trkpt lat="42.433283" lon="2.210457">
        <ele>2484.0</ele>
        <time>2009-05-16T06:34:05Z</time>
      </trkpt>
      <trkpt lat="42.433210" lon="2.210529">
        <ele>2495.0</ele>
        <time>2009-05-16T06:34:13Z</time>
      </trkpt>
      <trkpt lat="42.433170" lon="2.210583">
        <ele>2485.0</ele>
        <time>2009-05-16T06:34:27Z</time>
      </trkpt>
      <trkpt lat="42.433097" lon="2.210664">
        <ele>2485.0</ele>
        <time>2009-05-16T06:34:45Z</time>
      </trkpt>
      <trkpt lat="42.433064" lon="2.210781">
        <ele>2485.0</ele>
        <time>2009-05-16T06:34:58Z</time>
      </trkpt>
      <trkpt lat="42.432977" lon="2.210817">
        <ele>2485.0</ele>
        <time>2009-05-16T06:35:17Z</time>
      </trkpt>
      <trkpt lat="42.432891" lon="2.210862">
        <ele>2495.0</ele>
        <time>2009-05-16T06:35:32Z</time>
      </trkpt>
      <trkpt lat="42.432797" lon="2.210871">
        <ele>2495.0</ele>
        <time>2009-05-16T06:35:46Z</time>
      </trkpt>
      <trkpt lat="42.432711" lon="2.210916">
        <ele>2502.0</ele>
        <time>2009-05-16T06:36:03Z</time>
      </trkpt>
      <trkpt lat="42.432631" lon="2.210853">
        <ele>2502.0</ele>
        <time>2009-05-16T06:36:19Z</time>
      </trkpt>
      <trkpt lat="42.432545" lon="2.210889">
        <ele>2502.0</ele>
        <time>2009-05-16T06:36:37Z</time>
      </trkpt>
      <trkpt lat="42.432451" lon="2.210898">
        <ele>2502.0</ele>
        <time>2009-05-16T06:36:54Z</time>
      </trkpt>
      <trkpt lat="42.432378" lon="2.210970">
        <ele>2508.0</ele>
        <time>2009-05-16T06:37:14Z</time>
      </trkpt>
      <trkpt lat="42.432292" lon="2.211014">
        <ele>2515.0</ele>
        <time>2009-05-16T06:37:35Z</time>
      </trkpt>
      <trkpt lat="42.432192" lon="2.211005">
        <ele>2515.0</ele>
        <time>2009-05-16T06:37:56Z</time>
      </trkpt>
      <trkpt lat="42.432159" lon="2.211059">
        <ele>2515.0</ele>
        <time>2009-05-16T06:41:43Z</time>
      </trkpt>
      <trkpt lat="42.432065" lon="2.211077">
        <ele>2515.0</ele>
        <time>2009-05-16T06:45:44Z</time>
      </trkpt>
      <trkpt lat="42.431966" lon="2.211077">
        <ele>2520.0</ele>
        <time>2009-05-16T06:46:01Z</time>
      </trkpt>
      <trkpt lat="42.431873" lon="2.211059">
        <ele>2520.0</ele>
        <time>2009-05-16T06:46:14Z</time>
      </trkpt>
      <trkpt lat="42.431786" lon="2.211014">
        <ele>2532.0</ele>
        <time>2009-05-16T06:46:24Z</time>
      </trkpt>
      <trkpt lat="42.431686" lon="2.211023">
        <ele>2539.0</ele>
        <time>2009-05-16T06:46:40Z</time>
      </trkpt>
      <trkpt lat="42.431606" lon="2.210943">
        <ele>2539.0</ele>
        <time>2009-05-16T06:47:02Z</time>
      </trkpt>
      <trkpt lat="42.431533" lon="2.210871">
        <ele>2539.0</ele>
        <time>2009-05-16T06:47:24Z</time>
      </trkpt>
      <trkpt lat="42.431480" lon="2.210772">
        <ele>2539.0</ele>
        <time>2009-05-16T06:47:38Z</time>
      </trkpt>
      <trkpt lat="42.431400" lon="2.210700">
        <ele>2539.0</ele>
        <time>2009-05-16T06:47:58Z</time>
      </trkpt>
      <trkpt lat="42.431307" lon="2.210655">
        <ele>2539.0</ele>
        <time>2009-05-16T06:48:45Z</time>
      </trkpt>
      <trkpt lat="42.431227" lon="2.210592">
        <ele>2546.0</ele>
        <time>2009-05-16T06:48:54Z</time>
      </trkpt>
      <trkpt lat="42.431160" lon="2.210493">
        <ele>2546.0</ele>
        <time>2009-05-16T06:49:05Z</time>
      </trkpt>
      <trkpt lat="42.431087" lon="2.210422">
        <ele>2546.0</ele>
        <time>2009-05-16T06:49:17Z</time>
      </trkpt>
      <trkpt lat="42.431007" lon="2.210359">
        <ele>2546.0</ele>
        <time>2009-05-16T06:49:34Z</time>
      </trkpt>
      <trkpt lat="42.430908" lon="2.210368">
        <ele>2553.0</ele>
        <time>2009-05-16T06:49:52Z</time>
      </trkpt>
      <trkpt lat="42.430821" lon="2.210404">
        <ele>2553.0</ele>
        <time>2009-05-16T06:50:07Z</time>
      </trkpt>
      <trkpt lat="42.430728" lon="2.210413">
        <ele>2553.0</ele>
        <time>2009-05-16T06:50:25Z</time>
      </trkpt>
      <trkpt lat="42.430655" lon="2.210341">
        <ele>2553.0</ele>
        <time>2009-05-16T06:50:45Z</time>
      </trkpt>
      <trkpt lat="42.430608" lon="2.210233">
        <ele>2566.0</ele>
        <time>2009-05-16T06:51:12Z</time>
      </trkpt>
      <trkpt lat="42.430522" lon="2.210197">
        <ele>2566.0</ele>
        <time>2009-05-16T06:51:47Z</time>
      </trkpt>
      <trkpt lat="42.430435" lon="2.210242">
        <ele>2566.0</ele>
        <time>2009-05-16T06:52:16Z</time>
      </trkpt>
      <trkpt lat="42.430342" lon="2.210278">
        <ele>2566.0</ele>
        <time>2009-05-16T06:52:26Z</time>
      </trkpt>
      <trkpt lat="42.430289" lon="2.210269">
        <ele>2560.0</ele>
        <time>2009-05-16T06:55:10Z</time>
      </trkpt>
      <trkpt lat="42.430189" lon="2.210242">
        <ele>2566.0</ele>
        <time>2009-05-16T06:55:39Z</time>
      </trkpt>
      <trkpt lat="42.430109" lon="2.210305">
        <ele>2566.0</ele>
        <time>2009-05-16T06:55:49Z</time>
      </trkpt>
      <trkpt lat="42.430003" lon="2.210260">
        <ele>2580.0</ele>
        <time>2009-05-16T06:55:59Z</time>
      </trkpt>
      <trkpt lat="42.429903" lon="2.210269">
        <ele>2580.0</ele>
        <time>2009-05-16T06:56:08Z</time>
      </trkpt>
      <trkpt lat="42.429829" lon="2.210341">
        <ele>2580.0</ele>
        <time>2009-05-16T06:56:18Z</time>
      </trkpt>
      <trkpt lat="42.429756" lon="2.210413">
        <ele>2573.0</ele>
        <time>2009-05-16T06:56:26Z</time>
      </trkpt>
      <trkpt lat="42.429670" lon="2.210475">
        <ele>2573.0</ele>
        <time>2009-05-16T06:56:34Z</time>
      </trkpt>
      <trkpt lat="42.429597" lon="2.210547">
        <ele>2573.0</ele>
        <time>2009-05-16T06:56:42Z</time>
      </trkpt>
      <trkpt lat="42.429503" lon="2.210583">
        <ele>2573.0</ele>
        <time>2009-05-16T06:56:51Z</time>
      </trkpt>
      <trkpt lat="42.429417" lon="2.210637">
        <ele>2583.0</ele>
        <time>2009-05-16T06:57:00Z</time>
      </trkpt>
      <trkpt lat="42.429350" lon="2.210736">
        <ele>2583.0</ele>
        <time>2009-05-16T06:57:12Z</time>
      </trkpt>
      <trkpt lat="42.429270" lon="2.210799">
        <ele>2577.0</ele>
        <time>2009-05-16T06:57:25Z</time>
      </trkpt>
      <trkpt lat="42.429204" lon="2.210898">
        <ele>2577.0</ele>
        <time>2009-05-16T06:57:37Z</time>
      </trkpt>
      <trkpt lat="42.429111" lon="2.210952">
        <ele>2577.0</ele>
        <time>2009-05-16T06:57:50Z</time>
      </trkpt>
      <trkpt lat="42.429044" lon="2.211050">
        <ele>2577.0</ele>
        <time>2009-05-16T06:57:58Z</time>
      </trkpt>
      <trkpt lat="42.428998" lon="2.211158">
        <ele>2567.0</ele>
        <time>2009-05-16T06:58:08Z</time>
      </trkpt>
      <trkpt lat="42.428924" lon="2.211230">
        <ele>2567.0</ele>
        <time>2009-05-16T06:58:17Z</time>
      </trkpt>
      <trkpt lat="42.428831" lon="2.211230">
        <ele>2574.0</ele>
        <time>2009-05-16T06:58:24Z</time>
      </trkpt>
      <trkpt lat="42.428745" lon="2.211266">
        <ele>2574.0</ele>
        <time>2009-05-16T06:58:31Z</time>
      </trkpt>
      <trkpt lat="42.428652" lon="2.211248">
        <ele>2574.0</ele>
        <time>2009-05-16T06:58:40Z</time>
      </trkpt>
      <trkpt lat="42.428578" lon="2.211329">
        <ele>2574.0</ele>
        <time>2009-05-16T06:58:48Z</time>
      </trkpt>
      <trkpt lat="42.428485" lon="2.211347">
        <ele>2579.0</ele>
        <time>2009-05-16T06:58:56Z</time>
      </trkpt>
      <trkpt lat="42.428432" lon="2.211455">
        <ele>2579.0</ele>
        <time>2009-05-16T06:59:13Z</time>
      </trkpt>
      <trkpt lat="42.428392" lon="2.211571">
        <ele>2574.0</ele>
        <time>2009-05-16T06:59:29Z</time>
      </trkpt>
      <trkpt lat="42.428359" lon="2.211688">
        <ele>2574.0</ele>
        <time>2009-05-16T06:59:43Z</time>
      </trkpt>
      <trkpt lat="42.428292" lon="2.211778">
        <ele>2574.0</ele>
        <time>2009-05-16T06:59:55Z</time>
      </trkpt>
      <trkpt lat="42.428239" lon="2.211877">
        <ele>2574.0</ele>
        <time>2009-05-16T07:00:04Z</time>
      </trkpt>
      <trkpt lat="42.428159" lon="2.211958">
        <ele>2574.0</ele>
        <time>2009-05-16T07:00:13Z</time>
      </trkpt>
      <trkpt lat="42.428066" lon="2.211994">
        <ele>2580.0</ele>
        <time>2009-05-16T07:00:25Z</time>
      </trkpt>
      <trkpt lat="42.427999" lon="2.212083">
        <ele>2573.0</ele>
        <time>2009-05-16T07:00:36Z</time>
      </trkpt>
      <trkpt lat="42.427913" lon="2.212119">
        <ele>2580.0</ele>
        <time>2009-05-16T07:00:46Z</time>
      </trkpt>
      <trkpt lat="42.427826" lon="2.212191">
        <ele>2580.0</ele>
        <time>2009-05-16T07:01:04Z</time>
      </trkpt>
      <trkpt lat="42.427733" lon="2.212164">
        <ele>2591.0</ele>
        <time>2009-05-16T07:01:20Z</time>
      </trkpt>
      <trkpt lat="42.427660" lon="2.212236">
        <ele>2591.0</ele>
        <time>2009-05-16T07:01:35Z</time>
      </trkpt>
      <trkpt lat="42.427573" lon="2.212281">
        <ele>2573.0</ele>
        <time>2009-05-16T07:02:17Z</time>
      </trkpt>
      <trkpt lat="42.427480" lon="2.212272">
        <ele>2583.0</ele>
        <time>2009-05-16T07:02:29Z</time>
      </trkpt>
      <trkpt lat="42.427400" lon="2.212209">
        <ele>2596.0</ele>
        <time>2009-05-16T07:02:44Z</time>
      </trkpt>
      <trkpt lat="42.427327" lon="2.212281">
        <ele>2590.0</ele>
        <time>2009-05-16T07:04:22Z</time>
      </trkpt>
      <trkpt lat="42.427234" lon="2.212299">
        <ele>2598.0</ele>
        <time>2009-05-16T07:04:35Z</time>
      </trkpt>
      <trkpt lat="42.427148" lon="2.212344">
        <ele>2590.0</ele>
        <time>2009-05-16T07:04:59Z</time>
      </trkpt>
      <trkpt lat="42.426868" lon="2.212371">
        <ele>2610.0</ele>
        <time>2009-05-16T07:16:42Z</time>
      </trkpt>
      <trkpt lat="42.426708" lon="2.212344">
        <ele>2633.0</ele>
        <time>2009-05-16T07:25:09Z</time>
      </trkpt>
      <trkpt lat="42.426628" lon="2.212407">
        <ele>2633.0</ele>
        <time>2009-05-16T07:25:19Z</time>
      </trkpt>
      <trkpt lat="42.426535" lon="2.212425">
        <ele>2615.0</ele>
        <time>2009-05-16T07:26:13Z</time>
      </trkpt>
      <trkpt lat="42.426442" lon="2.212425">
        <ele>2615.0</ele>
        <time>2009-05-16T07:26:36Z</time>
      </trkpt>
      <trkpt lat="42.426356" lon="2.212371">
        <ele>2622.0</ele>
        <time>2009-05-16T07:26:46Z</time>
      </trkpt>
      <trkpt lat="42.426269" lon="2.212416">
        <ele>2622.0</ele>
        <time>2009-05-16T07:27:18Z</time>
      </trkpt>
      <trkpt lat="42.426216" lon="2.212515">
        <ele>2622.0</ele>
        <time>2009-05-16T07:27:56Z</time>
      </trkpt>
      <trkpt lat="42.426123" lon="2.212488">
        <ele>2628.0</ele>
        <time>2009-05-16T07:28:33Z</time>
      </trkpt>
      <trkpt lat="42.426036" lon="2.212452">
        <ele>2628.0</ele>
        <time>2009-05-16T07:28:59Z</time>
      </trkpt>
      <trkpt lat="42.425983" lon="2.212551">
        <ele>2635.0</ele>
        <time>2009-05-16T07:29:44Z</time>
      </trkpt>
      <trkpt lat="42.425896" lon="2.212515">
        <ele>2635.0</ele>
        <time>2009-05-16T07:30:12Z</time>
      </trkpt>
      <trkpt lat="42.425803" lon="2.212488">
        <ele>2635.0</ele>
        <time>2009-05-16T07:30:56Z</time>
      </trkpt>
      <trkpt lat="42.425710" lon="2.212533">
        <ele>2653.0</ele>
        <time>2009-05-16T07:32:14Z</time>
      </trkpt>
      <trkpt lat="42.425637" lon="2.212604">
        <ele>2653.0</ele>
        <time>2009-05-16T07:33:51Z</time>
      </trkpt>
      <trkpt lat="42.425570" lon="2.212694">
        <ele>2665.0</ele>
        <time>2009-05-16T07:35:00Z</time>
      </trkpt>
      <trkpt lat="42.425477" lon="2.212730">
        <ele>2679.0</ele>
        <time>2009-05-16T07:37:46Z</time>
      </trkpt>
      <trkpt lat="42.425384" lon="2.212730">
        <ele>2686.0</ele>
        <time>2009-05-16T07:39:39Z</time>
      </trkpt>
      <trkpt lat="42.425291" lon="2.212748">
        <ele>2697.0</ele>
        <time>2009-05-16T07:50:32Z</time>
      </trkpt>
      <trkpt lat="42.425204" lon="2.212793">
        <ele>2708.0</ele>
        <time>2009-05-16T07:53:54Z</time>
      </trkpt>
      <trkpt lat="42.425111" lon="2.212775">
        <ele>2716.0</ele>
        <time>2009-05-16T07:55:56Z</time>
      </trkpt>
      <trkpt lat="42.425018" lon="2.212793">
        <ele>2733.0</ele>
        <time>2009-05-16T07:58:34Z</time>
      </trkpt>
      <trkpt lat="42.424938" lon="2.212856">
        <ele>2733.0</ele>
        <time>2009-05-16T08:07:10Z</time>
      </trkpt>
      <trkpt lat="42.424845" lon="2.212856">
        <ele>2741.0</ele>
        <time>2009-05-16T08:11:57Z</time>
      </trkpt>
      <trkpt lat="42.424752" lon="2.212847">
        <ele>2749.0</ele>
        <time>2009-05-16T08:14:50Z</time>
      </trkpt>
      <trkpt lat="42.424658" lon="2.212883">
        <ele>2768.0</ele>
        <time>2009-05-16T08:19:15Z</time>
      </trkpt>
      <trkpt lat="42.424565" lon="2.212901">
        <ele>2768.0</ele>
        <time>2009-05-16T08:21:17Z</time>
      </trkpt>
      <trkpt lat="42.424472" lon="2.212919">
        <ele>2768.0</ele>
        <time>2009-05-16T08:23:42Z</time>
      </trkpt>
      <trkpt lat="42.424359" lon="2.212910">
        <ele>2811.0</ele>
        <time>2009-05-16T09:06:54Z</time>
      </trkpt>
      <trkpt lat="42.424266" lon="2.212910">
        <ele>2811.0</ele>
        <time>2009-05-16T09:07:45Z</time>
      </trkpt>
      <trkpt lat="42.424126" lon="2.212919">
        <ele>2816.0</ele>
        <time>2009-05-16T09:15:05Z</time>
      </trkpt>
      <trkpt lat="42.424113" lon="2.213072">
        <ele>2833.0</ele>
        <time>2009-05-16T09:40:48Z</time>
      </trkpt>
      <trkpt lat="42.424099" lon="2.213197">
        <ele>2833.0</ele>
        <time>2009-05-16T09:41:51Z</time>
      </trkpt>
      <trkpt lat="42.424013" lon="2.213242">
        <ele>2848.0</ele>
        <time>2009-05-16T09:43:28Z</time>
      </trkpt>
      <trkpt lat="42.423993" lon="2.213368">
        <ele>2855.0</ele>
        <time>2009-05-16T09:44:41Z</time>
      </trkpt>
      <trkpt lat="42.424026" lon="2.213485">
        <ele>2866.0</ele>
        <time>2009-05-16T09:45:49Z</time>
      </trkpt>
      <trkpt lat="42.424006" lon="2.213611">
        <ele>2866.0</ele>
        <time>2009-05-16T09:46:39Z</time>
      </trkpt>
      <trkpt lat="42.423980" lon="2.213727">
        <ele>2866.0</ele>
        <time>2009-05-16T09:47:10Z</time>
      </trkpt>
      <trkpt lat="42.423940" lon="2.213844">
        <ele>2877.0</ele>
        <time>2009-05-16T10:04:27Z</time>
      </trkpt>
      <trkpt lat="42.423886" lon="2.213952">
        <ele>2877.0</ele>
        <time>2009-05-16T10:05:15Z</time>
      </trkpt>
      <trkpt lat="42.423820" lon="2.214042">
        <ele>2877.0</ele>
        <time>2009-05-16T10:06:45Z</time>
      </trkpt>
      <trkpt lat="42.423753" lon="2.214132">
        <ele>2870.0</ele>
        <time>2009-05-16T10:07:20Z</time>
      </trkpt>
      <trkpt lat="42.423680" lon="2.214203">
        <ele>2864.0</ele>
        <time>2009-05-16T10:08:04Z</time>
      </trkpt>
      <trkpt lat="42.423614" lon="2.214293">
        <ele>2864.0</ele>
        <time>2009-05-16T10:08:40Z</time>
      </trkpt>
      <trkpt lat="42.423554" lon="2.214392">
        <ele>2859.0</ele>
        <time>2009-05-16T10:09:01Z</time>
      </trkpt>
      <trkpt lat="42.423487" lon="2.214482">
        <ele>2859.0</ele>
        <time>2009-05-16T10:09:19Z</time>
      </trkpt>
      <trkpt lat="42.423414" lon="2.214572">
        <ele>2859.0</ele>
        <time>2009-05-16T10:09:35Z</time>
      </trkpt>
      <trkpt lat="42.423334" lon="2.214635">
        <ele>2853.0</ele>
        <time>2009-05-16T10:09:49Z</time>
      </trkpt>
      <trkpt lat="42.423267" lon="2.214724">
        <ele>2853.0</ele>
        <time>2009-05-16T10:11:39Z</time>
      </trkpt>
      <trkpt lat="42.423221" lon="2.214832">
        <ele>2853.0</ele>
        <time>2009-05-16T10:12:42Z</time>
      </trkpt>
      <trkpt lat="42.423174" lon="2.214940">
        <ele>2845.0</ele>
        <time>2009-05-16T10:13:20Z</time>
      </trkpt>
      <trkpt lat="42.423148" lon="2.215057">
        <ele>2840.0</ele>
        <time>2009-05-16T10:14:27Z</time>
      </trkpt>
      <trkpt lat="42.423134" lon="2.215183">
        <ele>2833.0</ele>
        <time>2009-05-16T10:15:38Z</time>
      </trkpt>
      <trkpt lat="42.423108" lon="2.215299">
        <ele>2825.0</ele>
        <time>2009-05-16T10:16:51Z</time>
      </trkpt>
      <trkpt lat="42.423128" lon="2.215425">
        <ele>2825.0</ele>
        <time>2009-05-16T10:17:56Z</time>
      </trkpt>
      <trkpt lat="42.423121" lon="2.215551">
        <ele>2825.0</ele>
        <time>2009-05-16T10:19:02Z</time>
      </trkpt>
      <trkpt lat="42.423074" lon="2.215659">
        <ele>2818.0</ele>
        <time>2009-05-16T10:19:29Z</time>
      </trkpt>
      <trkpt lat="42.423128" lon="2.215820">
        <ele>2810.0</ele>
        <time>2009-05-16T10:21:04Z</time>
      </trkpt>
      <trkpt lat="42.423141" lon="2.215946">
        <ele>2801.0</ele>
        <time>2009-05-16T10:22:41Z</time>
      </trkpt>
      <trkpt lat="42.423141" lon="2.216072">
        <ele>2801.0</ele>
        <time>2009-05-16T10:23:14Z</time>
      </trkpt>
      <trkpt lat="42.423094" lon="2.216180">
        <ele>2792.0</ele>
        <time>2009-05-16T10:23:42Z</time>
      </trkpt>
      <trkpt lat="42.423081" lon="2.216306">
        <ele>2792.0</ele>
        <time>2009-05-16T10:26:05Z</time>
      </trkpt>
      <trkpt lat="42.423048" lon="2.216422">
        <ele>2782.0</ele>
        <time>2009-05-16T10:26:36Z</time>
      </trkpt>
      <trkpt lat="42.423074" lon="2.216539">
        <ele>2788.0</ele>
        <time>2009-05-16T10:27:06Z</time>
      </trkpt>
      <trkpt lat="42.423108" lon="2.216665">
        <ele>2788.0</ele>
        <time>2009-05-16T10:27:29Z</time>
      </trkpt>
      <trkpt lat="42.423194" lon="2.216701">
        <ele>2780.0</ele>
        <time>2009-05-16T10:28:11Z</time>
      </trkpt>
      <trkpt lat="42.423281" lon="2.216746">
        <ele>2766.0</ele>
        <time>2009-05-16T10:28:50Z</time>
      </trkpt>
      <trkpt lat="42.423361" lon="2.216809">
        <ele>2758.0</ele>
        <time>2009-05-16T10:30:01Z</time>
      </trkpt>
      <trkpt lat="42.423454" lon="2.216844">
        <ele>2738.0</ele>
        <time>2009-05-16T10:31:41Z</time>
      </trkpt>
      <trkpt lat="42.423527" lon="2.216925">
        <ele>2732.0</ele>
        <time>2009-05-16T10:32:00Z</time>
      </trkpt>
      <trkpt lat="42.423620" lon="2.216943">
        <ele>2719.0</ele>
        <time>2009-05-16T10:32:19Z</time>
      </trkpt>
      <trkpt lat="42.423707" lon="2.216979">
        <ele>2719.0</ele>
        <time>2009-05-16T10:32:31Z</time>
      </trkpt>
      <trkpt lat="42.423800" lon="2.216961">
        <ele>2727.0</ele>
        <time>2009-05-16T10:32:58Z</time>
      </trkpt>
      <trkpt lat="42.423886" lon="2.216997">
        <ele>2722.0</ele>
        <time>2009-05-16T10:33:13Z</time>
      </trkpt>
      <trkpt lat="42.423880" lon="2.217006">
        <ele>2688.0</ele>
        <time>2009-05-16T10:34:08Z</time>
      </trkpt>
      <trkpt lat="42.423960" lon="2.217069">
        <ele>2702.0</ele>
        <time>2009-05-16T10:34:25Z</time>
      </trkpt>
      <trkpt lat="42.424040" lon="2.217159">
        <ele>2693.0</ele>
        <time>2009-05-16T10:34:44Z</time>
      </trkpt>
      <trkpt lat="42.424126" lon="2.217222">
        <ele>2682.0</ele>
        <time>2009-05-16T10:34:56Z</time>
      </trkpt>
      <trkpt lat="42.424206" lon="2.217294">
        <ele>2682.0</ele>
        <time>2009-05-16T10:35:08Z</time>
      </trkpt>
      <trkpt lat="42.424292" lon="2.217357">
        <ele>2688.0</ele>
        <time>2009-05-16T10:35:16Z</time>
      </trkpt>
      <trkpt lat="42.424505" lon="2.217258">
        <ele>2684.0</ele>
        <time>2009-05-16T11:32:36Z</time>
      </trkpt>
      <trkpt lat="42.424599" lon="2.217276">
        <ele>2684.0</ele>
        <time>2009-05-16T11:35:04Z</time>
      </trkpt>
      <trkpt lat="42.424678" lon="2.217348">
        <ele>2684.0</ele>
        <time>2009-05-16T11:35:15Z</time>
      </trkpt>
      <trkpt lat="42.424752" lon="2.217437">
        <ele>2684.0</ele>
        <time>2009-05-16T11:35:22Z</time>
      </trkpt>
      <trkpt lat="42.424825" lon="2.217518">
        <ele>2677.0</ele>
        <time>2009-05-16T11:35:31Z</time>
      </trkpt>
      <trkpt lat="42.424885" lon="2.217617">
        <ele>2677.0</ele>
        <time>2009-05-16T11:35:39Z</time>
      </trkpt>
      <trkpt lat="42.424945" lon="2.217716">
        <ele>2670.0</ele>
        <time>2009-05-16T11:35:48Z</time>
      </trkpt>
      <trkpt lat="42.425005" lon="2.217815">
        <ele>2670.0</ele>
        <time>2009-05-16T11:35:56Z</time>
      </trkpt>
      <trkpt lat="42.425071" lon="2.217913">
        <ele>2665.0</ele>
        <time>2009-05-16T11:36:05Z</time>
      </trkpt>
      <trkpt lat="42.425138" lon="2.218003">
        <ele>2665.0</ele>
        <time>2009-05-16T11:36:14Z</time>
      </trkpt>
      <trkpt lat="42.425198" lon="2.218111">
        <ele>2665.0</ele>
        <time>2009-05-16T11:36:29Z</time>
      </trkpt>
      <trkpt lat="42.425264" lon="2.218210">
        <ele>2658.0</ele>
        <time>2009-05-16T11:36:38Z</time>
      </trkpt>
      <trkpt lat="42.425331" lon="2.218318">
        <ele>2658.0</ele>
        <time>2009-05-16T11:36:46Z</time>
      </trkpt>
      <trkpt lat="42.425397" lon="2.218408">
        <ele>2658.0</ele>
        <time>2009-05-16T11:36:55Z</time>
      </trkpt>
      <trkpt lat="42.425484" lon="2.218470">
        <ele>2651.0</ele>
        <time>2009-05-16T11:37:05Z</time>
      </trkpt>
      <trkpt lat="42.425557" lon="2.218542">
        <ele>2651.0</ele>
        <time>2009-05-16T11:37:14Z</time>
      </trkpt>
      <trkpt lat="42.425623" lon="2.218641">
        <ele>2651.0</ele>
        <time>2009-05-16T11:37:23Z</time>
      </trkpt>
      <trkpt lat="42.425670" lon="2.218749">
        <ele>2651.0</ele>
        <time>2009-05-16T11:37:31Z</time>
      </trkpt>
      <trkpt lat="42.425723" lon="2.218857">
        <ele>2651.0</ele>
        <time>2009-05-16T11:37:39Z</time>
      </trkpt>
      <trkpt lat="42.425783" lon="2.218956">
        <ele>2651.0</ele>
        <time>2009-05-16T11:37:48Z</time>
      </trkpt>
      <trkpt lat="42.425830" lon="2.219063">
        <ele>2651.0</ele>
        <time>2009-05-16T11:37:56Z</time>
      </trkpt>
      <trkpt lat="42.425883" lon="2.219171">
        <ele>2651.0</ele>
        <time>2009-05-16T11:38:04Z</time>
      </trkpt>
      <trkpt lat="42.425910" lon="2.219288">
        <ele>2646.0</ele>
        <time>2009-05-16T11:38:14Z</time>
      </trkpt>
      <trkpt lat="42.425963" lon="2.219387">
        <ele>2646.0</ele>
        <time>2009-05-16T11:39:22Z</time>
      </trkpt>
      <trkpt lat="42.425990" lon="2.219512">
        <ele>2646.0</ele>
        <time>2009-05-16T11:39:35Z</time>
      </trkpt>
      <trkpt lat="42.426009" lon="2.219638">
        <ele>2646.0</ele>
        <time>2009-05-16T11:39:48Z</time>
      </trkpt>
      <trkpt lat="42.426023" lon="2.219764">
        <ele>2646.0</ele>
        <time>2009-05-16T11:39:55Z</time>
      </trkpt>
      <trkpt lat="42.426063" lon="2.219881">
        <ele>2637.0</ele>
        <time>2009-05-16T11:40:02Z</time>
      </trkpt>
      <trkpt lat="42.426096" lon="2.219998">
        <ele>2637.0</ele>
        <time>2009-05-16T11:40:09Z</time>
      </trkpt>
      <trkpt lat="42.426169" lon="2.220069">
        <ele>2631.0</ele>
        <time>2009-05-16T11:40:19Z</time>
      </trkpt>
      <trkpt lat="42.426262" lon="2.220096">
        <ele>2631.0</ele>
        <time>2009-05-16T11:40:34Z</time>
      </trkpt>
      <trkpt lat="42.426362" lon="2.220114">
        <ele>2631.0</ele>
        <time>2009-05-16T11:40:42Z</time>
      </trkpt>
      <trkpt lat="42.426455" lon="2.220150">
        <ele>2631.0</ele>
        <time>2009-05-16T11:40:50Z</time>
      </trkpt>
      <trkpt lat="42.426542" lon="2.220213">
        <ele>2631.0</ele>
        <time>2009-05-16T11:40:58Z</time>
      </trkpt>
      <trkpt lat="42.426628" lon="2.220258">
        <ele>2624.0</ele>
        <time>2009-05-16T11:41:05Z</time>
      </trkpt>
      <trkpt lat="42.426715" lon="2.220303">
        <ele>2624.0</ele>
        <time>2009-05-16T11:41:11Z</time>
      </trkpt>
      <trkpt lat="42.426788" lon="2.220384">
        <ele>2624.0</ele>
        <time>2009-05-16T11:41:19Z</time>
      </trkpt>
      <trkpt lat="42.426848" lon="2.220483">
        <ele>2617.0</ele>
        <time>2009-05-16T11:41:27Z</time>
      </trkpt>
      <trkpt lat="42.426935" lon="2.220555">
        <ele>2617.0</ele>
        <time>2009-05-16T11:41:42Z</time>
      </trkpt>
      <trkpt lat="42.427008" lon="2.220626">
        <ele>2617.0</ele>
        <time>2009-05-16T11:41:51Z</time>
      </trkpt>
      <trkpt lat="42.427101" lon="2.220662">
        <ele>2617.0</ele>
        <time>2009-05-16T11:42:00Z</time>
      </trkpt>
      <trkpt lat="42.427181" lon="2.220725">
        <ele>2617.0</ele>
        <time>2009-05-16T11:42:11Z</time>
      </trkpt>
      <trkpt lat="42.427247" lon="2.220815">
        <ele>2617.0</ele>
        <time>2009-05-16T11:42:20Z</time>
      </trkpt>
      <trkpt lat="42.427307" lon="2.220914">
        <ele>2611.0</ele>
        <time>2009-05-16T11:42:29Z</time>
      </trkpt>
      <trkpt lat="42.427354" lon="2.221031">
        <ele>2611.0</ele>
        <time>2009-05-16T11:42:37Z</time>
      </trkpt>
      <trkpt lat="42.427427" lon="2.221111">
        <ele>2611.0</ele>
        <time>2009-05-16T11:42:44Z</time>
      </trkpt>
      <trkpt lat="42.427514" lon="2.221174">
        <ele>2604.0</ele>
        <time>2009-05-16T11:42:51Z</time>
      </trkpt>
      <trkpt lat="42.427587" lon="2.221255">
        <ele>2604.0</ele>
        <time>2009-05-16T11:42:58Z</time>
      </trkpt>
      <trkpt lat="42.427680" lon="2.221309">
        <ele>2604.0</ele>
        <time>2009-05-16T11:43:06Z</time>
      </trkpt>
      <trkpt lat="42.427766" lon="2.221354">
        <ele>2610.0</ele>
        <time>2009-05-16T11:43:13Z</time>
      </trkpt>
      <trkpt lat="42.427860" lon="2.221399">
        <ele>2610.0</ele>
        <time>2009-05-16T11:43:20Z</time>
      </trkpt>
      <trkpt lat="42.427953" lon="2.221435">
        <ele>2604.0</ele>
        <time>2009-05-16T11:43:28Z</time>
      </trkpt>
      <trkpt lat="42.428046" lon="2.221453">
        <ele>2604.0</ele>
        <time>2009-05-16T11:43:35Z</time>
      </trkpt>
      <trkpt lat="42.428139" lon="2.221471">
        <ele>2604.0</ele>
        <time>2009-05-16T11:43:42Z</time>
      </trkpt>
      <trkpt lat="42.428239" lon="2.221489">
        <ele>2604.0</ele>
        <time>2009-05-16T11:43:50Z</time>
      </trkpt>
      <trkpt lat="42.428339" lon="2.221489">
        <ele>2604.0</ele>
        <time>2009-05-16T11:43:58Z</time>
      </trkpt>
      <trkpt lat="42.428432" lon="2.221480">
        <ele>2604.0</ele>
        <time>2009-05-16T11:44:06Z</time>
      </trkpt>
      <trkpt lat="42.428532" lon="2.221471">
        <ele>2597.0</ele>
        <time>2009-05-16T11:44:14Z</time>
      </trkpt>
      <trkpt lat="42.428625" lon="2.221471">
        <ele>2597.0</ele>
        <time>2009-05-16T11:44:41Z</time>
      </trkpt>
      <trkpt lat="42.428718" lon="2.221498">
        <ele>2590.0</ele>
        <time>2009-05-16T11:44:49Z</time>
      </trkpt>
      <trkpt lat="42.428811" lon="2.221516">
        <ele>2590.0</ele>
        <time>2009-05-16T11:44:57Z</time>
      </trkpt>
      <trkpt lat="42.428904" lon="2.221516">
        <ele>2590.0</ele>
        <time>2009-05-16T11:45:05Z</time>
      </trkpt>
      <trkpt lat="42.428998" lon="2.221498">
        <ele>2590.0</ele>
        <time>2009-05-16T11:45:13Z</time>
      </trkpt>
      <trkpt lat="42.429091" lon="2.221471">
        <ele>2581.0</ele>
        <time>2009-05-16T11:45:22Z</time>
      </trkpt>
      <trkpt lat="42.429184" lon="2.221417">
        <ele>2581.0</ele>
        <time>2009-05-16T11:45:30Z</time>
      </trkpt>
      <trkpt lat="42.429277" lon="2.221390">
        <ele>2581.0</ele>
        <time>2009-05-16T11:45:39Z</time>
      </trkpt>
      <trkpt lat="42.429377" lon="2.221363">
        <ele>2573.0</ele>
        <time>2009-05-16T11:45:47Z</time>
      </trkpt>
      <trkpt lat="42.429483" lon="2.221345">
        <ele>2573.0</ele>
        <time>2009-05-16T11:45:54Z</time>
      </trkpt>
      <trkpt lat="42.429583" lon="2.221309">
        <ele>2565.0</ele>
        <time>2009-05-16T11:46:00Z</time>
      </trkpt>
      <trkpt lat="42.429676" lon="2.221291">
        <ele>2560.0</ele>
        <time>2009-05-16T11:46:07Z</time>
      </trkpt>
      <trkpt lat="42.429776" lon="2.221309">
        <ele>2560.0</ele>
        <time>2009-05-16T11:46:15Z</time>
      </trkpt>
      <trkpt lat="42.429876" lon="2.221300">
        <ele>2560.0</ele>
        <time>2009-05-16T11:46:22Z</time>
      </trkpt>
      <trkpt lat="42.429969" lon="2.221300">
        <ele>2551.0</ele>
        <time>2009-05-16T11:46:29Z</time>
      </trkpt>
      <trkpt lat="42.430062" lon="2.221273">
        <ele>2551.0</ele>
        <time>2009-05-16T11:46:36Z</time>
      </trkpt>
      <trkpt lat="42.430156" lon="2.221273">
        <ele>2551.0</ele>
        <time>2009-05-16T11:46:43Z</time>
      </trkpt>
      <trkpt lat="42.430249" lon="2.221264">
        <ele>2543.0</ele>
        <time>2009-05-16T11:46:50Z</time>
      </trkpt>
      <trkpt lat="42.430342" lon="2.221273">
        <ele>2543.0</ele>
        <time>2009-05-16T11:46:58Z</time>
      </trkpt>
      <trkpt lat="42.430435" lon="2.221246">
        <ele>2551.0</ele>
        <time>2009-05-16T11:47:50Z</time>
      </trkpt>
      <trkpt lat="42.430528" lon="2.221282">
        <ele>2551.0</ele>
        <time>2009-05-16T11:47:59Z</time>
      </trkpt>
      <trkpt lat="42.430621" lon="2.221309">
        <ele>2545.0</ele>
        <time>2009-05-16T11:48:08Z</time>
      </trkpt>
      <trkpt lat="42.430715" lon="2.221309">
        <ele>2539.0</ele>
        <time>2009-05-16T11:48:25Z</time>
      </trkpt>
      <trkpt lat="42.430808" lon="2.221273">
        <ele>2539.0</ele>
        <time>2009-05-16T11:48:33Z</time>
      </trkpt>
      <trkpt lat="42.430901" lon="2.221282">
        <ele>2532.0</ele>
        <time>2009-05-16T11:48:47Z</time>
      </trkpt>
      <trkpt lat="42.430994" lon="2.221282">
        <ele>2532.0</ele>
        <time>2009-05-16T11:48:54Z</time>
      </trkpt>
      <trkpt lat="42.431087" lon="2.221291">
        <ele>2532.0</ele>
        <time>2009-05-16T11:49:01Z</time>
      </trkpt>
      <trkpt lat="42.431180" lon="2.221300">
        <ele>2532.0</ele>
        <time>2009-05-16T11:49:08Z</time>
      </trkpt>
      <trkpt lat="42.431274" lon="2.221318">
        <ele>2527.0</ele>
        <time>2009-05-16T11:54:03Z</time>
      </trkpt>
      <trkpt lat="42.431373" lon="2.221327">
        <ele>2527.0</ele>
        <time>2009-05-16T11:54:12Z</time>
      </trkpt>
      <trkpt lat="42.431473" lon="2.221336">
        <ele>2527.0</ele>
        <time>2009-05-16T11:54:20Z</time>
      </trkpt>
      <trkpt lat="42.431573" lon="2.221345">
        <ele>2527.0</ele>
        <time>2009-05-16T11:54:29Z</time>
      </trkpt>
      <trkpt lat="42.431666" lon="2.221345">
        <ele>2527.0</ele>
        <time>2009-05-16T11:54:38Z</time>
      </trkpt>
      <trkpt lat="42.431759" lon="2.221336">
        <ele>2527.0</ele>
        <time>2009-05-16T11:54:47Z</time>
      </trkpt>
      <trkpt lat="42.431846" lon="2.221390">
        <ele>2527.0</ele>
        <time>2009-05-16T11:54:55Z</time>
      </trkpt>
      <trkpt lat="42.431939" lon="2.221417">
        <ele>2527.0</ele>
        <time>2009-05-16T11:55:04Z</time>
      </trkpt>
      <trkpt lat="42.432032" lon="2.221444">
        <ele>2520.0</ele>
        <time>2009-05-16T11:55:13Z</time>
      </trkpt>
      <trkpt lat="42.432125" lon="2.221462">
        <ele>2520.0</ele>
        <time>2009-05-16T11:55:22Z</time>
      </trkpt>
      <trkpt lat="42.432225" lon="2.221489">
        <ele>2520.0</ele>
        <time>2009-05-16T11:55:31Z</time>
      </trkpt>
      <trkpt lat="42.432318" lon="2.221507">
        <ele>2520.0</ele>
        <time>2009-05-16T11:55:41Z</time>
      </trkpt>
      <trkpt lat="42.432418" lon="2.221516">
        <ele>2515.0</ele>
        <time>2009-05-16T11:55:51Z</time>
      </trkpt>
      <trkpt lat="42.432511" lon="2.221552">
        <ele>2509.0</ele>
        <time>2009-05-16T11:56:00Z</time>
      </trkpt>
      <trkpt lat="42.432605" lon="2.221588">
        <ele>2509.0</ele>
        <time>2009-05-16T11:56:09Z</time>
      </trkpt>
      <trkpt lat="42.432691" lon="2.221624">
        <ele>2509.0</ele>
        <time>2009-05-16T11:56:17Z</time>
      </trkpt>
      <trkpt lat="42.432784" lon="2.221659">
        <ele>2509.0</ele>
        <time>2009-05-16T11:56:26Z</time>
      </trkpt>
      <trkpt lat="42.432871" lon="2.221704">
        <ele>2509.0</ele>
        <time>2009-05-16T11:56:35Z</time>
      </trkpt>
      <trkpt lat="42.432964" lon="2.221767">
        <ele>2509.0</ele>
        <time>2009-05-16T11:56:46Z</time>
      </trkpt>
      <trkpt lat="42.433057" lon="2.221812">
        <ele>2509.0</ele>
        <time>2009-05-16T11:56:56Z</time>
      </trkpt>
      <trkpt lat="42.433137" lon="2.221875">
        <ele>2509.0</ele>
        <time>2009-05-16T11:57:05Z</time>
      </trkpt>
      <trkpt lat="42.433223" lon="2.221929">
        <ele>2509.0</ele>
        <time>2009-05-16T11:57:14Z</time>
      </trkpt>
      <trkpt lat="42.433310" lon="2.221983">
        <ele>2509.0</ele>
        <time>2009-05-16T11:57:23Z</time>
      </trkpt>
      <trkpt lat="42.433396" lon="2.222028">
        <ele>2509.0</ele>
        <time>2009-05-16T11:57:32Z</time>
      </trkpt>
      <trkpt lat="42.433483" lon="2.222073">
        <ele>2524.0</ele>
        <time>2009-05-16T11:59:40Z</time>
      </trkpt>
      <trkpt lat="42.433569" lon="2.222109">
        <ele>2524.0</ele>
        <time>2009-05-16T11:59:48Z</time>
      </trkpt>
      <trkpt lat="42.433663" lon="2.222136">
        <ele>2529.0</ele>
        <time>2009-05-16T11:59:56Z</time>
      </trkpt>
      <trkpt lat="42.433762" lon="2.222172">
        <ele>2529.0</ele>
        <time>2009-05-16T12:00:05Z</time>
      </trkpt>
      <trkpt lat="42.433849" lon="2.222234">
        <ele>2529.0</ele>
        <time>2009-05-16T12:00:14Z</time>
      </trkpt>
      <trkpt lat="42.433942" lon="2.222297">
        <ele>2523.0</ele>
        <time>2009-05-16T12:00:23Z</time>
      </trkpt>
      <trkpt lat="42.434002" lon="2.222396">
        <ele>2516.0</ele>
        <time>2009-05-16T12:01:29Z</time>
      </trkpt>
      <trkpt lat="42.434095" lon="2.222450">
        <ele>2516.0</ele>
        <time>2009-05-16T12:01:40Z</time>
      </trkpt>
      <trkpt lat="42.434188" lon="2.222486">
        <ele>2516.0</ele>
        <time>2009-05-16T12:01:50Z</time>
      </trkpt>
      <trkpt lat="42.434275" lon="2.222540">
        <ele>2516.0</ele>
        <time>2009-05-16T12:02:00Z</time>
      </trkpt>
      <trkpt lat="42.434361" lon="2.222603">
        <ele>2516.0</ele>
        <time>2009-05-16T12:02:11Z</time>
      </trkpt>
      <trkpt lat="42.434454" lon="2.222657">
        <ele>2511.0</ele>
        <time>2009-05-16T12:02:20Z</time>
      </trkpt>
      <trkpt lat="42.434541" lon="2.222702">
        <ele>2511.0</ele>
        <time>2009-05-16T12:02:29Z</time>
      </trkpt>
      <trkpt lat="42.434627" lon="2.222737">
        <ele>2505.0</ele>
        <time>2009-05-16T12:02:37Z</time>
      </trkpt>
      <trkpt lat="42.434721" lon="2.222764">
        <ele>2505.0</ele>
        <time>2009-05-16T12:02:46Z</time>
      </trkpt>
      <trkpt lat="42.434814" lon="2.222782">
        <ele>2505.0</ele>
        <time>2009-05-16T12:02:55Z</time>
      </trkpt>
      <trkpt lat="42.434907" lon="2.222818">
        <ele>2496.0</ele>
        <time>2009-05-16T12:03:04Z</time>
      </trkpt>
      <trkpt lat="42.435000" lon="2.222872">
        <ele>2496.0</ele>
        <time>2009-05-16T12:03:13Z</time>
      </trkpt>
      <trkpt lat="42.435093" lon="2.222935">
        <ele>2490.0</ele>
        <time>2009-05-16T12:03:22Z</time>
      </trkpt>
      <trkpt lat="42.435180" lon="2.222998">
        <ele>2490.0</ele>
        <time>2009-05-16T12:03:30Z</time>
      </trkpt>
      <trkpt lat="42.435273" lon="2.223052">
        <ele>2490.0</ele>
        <time>2009-05-16T12:03:37Z</time>
      </trkpt>
      <trkpt lat="42.435353" lon="2.223115">
        <ele>2483.0</ele>
        <time>2009-05-16T12:03:43Z</time>
      </trkpt>
      <trkpt lat="42.435433" lon="2.223178">
        <ele>2483.0</ele>
        <time>2009-05-16T12:03:49Z</time>
      </trkpt>
      <trkpt lat="42.435519" lon="2.223214">
        <ele>2476.0</ele>
        <time>2009-05-16T12:03:56Z</time>
      </trkpt>
      <trkpt lat="42.435612" lon="2.223196">
        <ele>2476.0</ele>
        <time>2009-05-16T12:04:05Z</time>
      </trkpt>
      <trkpt lat="42.435712" lon="2.223196">
        <ele>2476.0</ele>
        <time>2009-05-16T12:04:14Z</time>
      </trkpt>
      <trkpt lat="42.435805" lon="2.223205">
        <ele>2476.0</ele>
        <time>2009-05-16T12:04:23Z</time>
      </trkpt>
      <trkpt lat="42.435898" lon="2.223214">
        <ele>2471.0</ele>
        <time>2009-05-16T12:04:31Z</time>
      </trkpt>
      <trkpt lat="42.435998" lon="2.223249">
        <ele>2471.0</ele>
        <time>2009-05-16T12:04:40Z</time>
      </trkpt>
      <trkpt lat="42.436091" lon="2.223276">
        <ele>2471.0</ele>
        <time>2009-05-16T12:04:48Z</time>
      </trkpt>
      <trkpt lat="42.436185" lon="2.223294">
        <ele>2471.0</ele>
        <time>2009-05-16T12:04:56Z</time>
      </trkpt>
      <trkpt lat="42.436278" lon="2.223276">
        <ele>2471.0</ele>
        <time>2009-05-16T12:05:04Z</time>
      </trkpt>
      <trkpt lat="42.436378" lon="2.223276">
        <ele>2463.0</ele>
        <time>2009-05-16T12:05:25Z</time>
      </trkpt>
      <trkpt lat="42.436464" lon="2.223240">
        <ele>2463.0</ele>
        <time>2009-05-16T12:05:33Z</time>
      </trkpt>
      <trkpt lat="42.436557" lon="2.223178">
        <ele>2458.0</ele>
        <time>2009-05-16T12:05:42Z</time>
      </trkpt>
      <trkpt lat="42.436637" lon="2.223115">
        <ele>2458.0</ele>
        <time>2009-05-16T12:05:50Z</time>
      </trkpt>
      <trkpt lat="42.436724" lon="2.223043">
        <ele>2458.0</ele>
        <time>2009-05-16T12:05:59Z</time>
      </trkpt>
      <trkpt lat="42.436810" lon="2.222989">
        <ele>2458.0</ele>
        <time>2009-05-16T12:06:06Z</time>
      </trkpt>
      <trkpt lat="42.436897" lon="2.222926">
        <ele>2458.0</ele>
        <time>2009-05-16T12:06:13Z</time>
      </trkpt>
      <trkpt lat="42.436970" lon="2.222854">
        <ele>2452.0</ele>
        <time>2009-05-16T12:06:20Z</time>
      </trkpt>
      <trkpt lat="42.437050" lon="2.222782">
        <ele>2452.0</ele>
        <time>2009-05-16T12:06:28Z</time>
      </trkpt>
      <trkpt lat="42.437123" lon="2.222693">
        <ele>2452.0</ele>
        <time>2009-05-16T12:06:36Z</time>
      </trkpt>
      <trkpt lat="42.437189" lon="2.222594">
        <ele>2446.0</ele>
        <time>2009-05-16T12:06:45Z</time>
      </trkpt>
      <trkpt lat="42.437256" lon="2.222504">
        <ele>2446.0</ele>
        <time>2009-05-16T12:06:53Z</time>
      </trkpt>
      <trkpt lat="42.437322" lon="2.222414">
        <ele>2440.0</ele>
        <time>2009-05-16T12:07:01Z</time>
      </trkpt>
      <trkpt lat="42.437389" lon="2.222315">
        <ele>2440.0</ele>
        <time>2009-05-16T12:07:09Z</time>
      </trkpt>
      <trkpt lat="42.437455" lon="2.222207">
        <ele>2434.0</ele>
        <time>2009-05-16T12:07:18Z</time>
      </trkpt>
      <trkpt lat="42.437529" lon="2.222118">
        <ele>2434.0</ele>
        <time>2009-05-16T12:07:26Z</time>
      </trkpt>
      <trkpt lat="42.437609" lon="2.222055">
        <ele>2434.0</ele>
        <time>2009-05-16T12:07:33Z</time>
      </trkpt>
      <trkpt lat="42.437682" lon="2.221983">
        <ele>2427.0</ele>
        <time>2009-05-16T12:07:40Z</time>
      </trkpt>
      <trkpt lat="42.437755" lon="2.221902">
        <ele>2427.0</ele>
        <time>2009-05-16T12:07:48Z</time>
      </trkpt>
      <trkpt lat="42.437841" lon="2.221857">
        <ele>2420.0</ele>
        <time>2009-05-16T12:07:56Z</time>
      </trkpt>
      <trkpt lat="42.437935" lon="2.221821">
        <ele>2420.0</ele>
        <time>2009-05-16T12:08:04Z</time>
      </trkpt>
      <trkpt lat="42.438028" lon="2.221758">
        <ele>2420.0</ele>
        <time>2009-05-16T12:08:13Z</time>
      </trkpt>
      <trkpt lat="42.438114" lon="2.221722">
        <ele>2412.0</ele>
        <time>2009-05-16T12:08:22Z</time>
      </trkpt>
      <trkpt lat="42.438214" lon="2.221695">
        <ele>2412.0</ele>
        <time>2009-05-16T12:08:33Z</time>
      </trkpt>
      <trkpt lat="42.438314" lon="2.221686">
        <ele>2406.0</ele>
        <time>2009-05-16T12:09:25Z</time>
      </trkpt>
      <trkpt lat="42.438407" lon="2.221677">
        <ele>2406.0</ele>
        <time>2009-05-16T12:09:34Z</time>
      </trkpt>
      <trkpt lat="42.438500" lon="2.221722">
        <ele>2406.0</ele>
        <time>2009-05-16T12:09:44Z</time>
      </trkpt>
      <trkpt lat="42.438587" lon="2.221686">
        <ele>2398.0</ele>
        <time>2009-05-16T12:09:50Z</time>
      </trkpt>
      <trkpt lat="42.438693" lon="2.221650">
        <ele>2398.0</ele>
        <time>2009-05-16T12:09:55Z</time>
      </trkpt>
      <trkpt lat="42.438786" lon="2.221606">
        <ele>2390.0</ele>
        <time>2009-05-16T12:10:00Z</time>
      </trkpt>
      <trkpt lat="42.438879" lon="2.221552">
        <ele>2390.0</ele>
        <time>2009-05-16T12:10:06Z</time>
      </trkpt>
      <trkpt lat="42.438953" lon="2.221471">
        <ele>2380.0</ele>
        <time>2009-05-16T12:10:13Z</time>
      </trkpt>
      <trkpt lat="42.439032" lon="2.221390">
        <ele>2375.0</ele>
        <time>2009-05-16T12:10:23Z</time>
      </trkpt>
      <trkpt lat="42.439119" lon="2.221336">
        <ele>2369.0</ele>
        <time>2009-05-16T12:10:31Z</time>
      </trkpt>
      <trkpt lat="42.439205" lon="2.221282">
        <ele>2369.0</ele>
        <time>2009-05-16T12:10:39Z</time>
      </trkpt>
      <trkpt lat="42.439299" lon="2.221282">
        <ele>2364.0</ele>
        <time>2009-05-16T12:10:48Z</time>
      </trkpt>
      <trkpt lat="42.439392" lon="2.221282">
        <ele>2358.0</ele>
        <time>2009-05-16T12:10:58Z</time>
      </trkpt>
      <trkpt lat="42.439485" lon="2.221282">
        <ele>2358.0</ele>
        <time>2009-05-16T12:11:07Z</time>
      </trkpt>
      <trkpt lat="42.439585" lon="2.221291">
        <ele>2352.0</ele>
        <time>2009-05-16T12:11:16Z</time>
      </trkpt>
      <trkpt lat="42.439685" lon="2.221282">
        <ele>2352.0</ele>
        <time>2009-05-16T12:11:24Z</time>
      </trkpt>
      <trkpt lat="42.439784" lon="2.221291">
        <ele>2346.0</ele>
        <time>2009-05-16T12:11:33Z</time>
      </trkpt>
      <trkpt lat="42.439884" lon="2.221291">
        <ele>2346.0</ele>
        <time>2009-05-16T12:11:40Z</time>
      </trkpt>
      <trkpt lat="42.439977" lon="2.221318">
        <ele>2346.0</ele>
        <time>2009-05-16T12:11:49Z</time>
      </trkpt>
      <trkpt lat="42.440070" lon="2.221345">
        <ele>2346.0</ele>
        <time>2009-05-16T12:11:57Z</time>
      </trkpt>
      <trkpt lat="42.440164" lon="2.221363">
        <ele>2346.0</ele>
        <time>2009-05-16T12:12:04Z</time>
      </trkpt>
      <trkpt lat="42.440257" lon="2.221399">
        <ele>2346.0</ele>
        <time>2009-05-16T12:12:12Z</time>
      </trkpt>
      <trkpt lat="42.440350" lon="2.221408">
        <ele>2339.0</ele>
        <time>2009-05-16T12:12:20Z</time>
      </trkpt>
      <trkpt lat="42.440443" lon="2.221426">
        <ele>2339.0</ele>
        <time>2009-05-16T12:12:29Z</time>
      </trkpt>
      <trkpt lat="42.440543" lon="2.221426">
        <ele>2339.0</ele>
        <time>2009-05-16T12:12:37Z</time>
      </trkpt>
      <trkpt lat="42.440643" lon="2.221435">
        <ele>2332.0</ele>
        <time>2009-05-16T12:12:45Z</time>
      </trkpt>
      <trkpt lat="42.440742" lon="2.221426">
        <ele>2332.0</ele>
        <time>2009-05-16T12:12:55Z</time>
      </trkpt>
      <trkpt lat="42.440836" lon="2.221408">
        <ele>2332.0</ele>
        <time>2009-05-16T12:13:04Z</time>
      </trkpt>
      <trkpt lat="42.440929" lon="2.221408">
        <ele>2325.0</ele>
        <time>2009-05-16T12:13:14Z</time>
      </trkpt>
      <trkpt lat="42.441029" lon="2.221417">
        <ele>2325.0</ele>
        <time>2009-05-16T12:15:24Z</time>
      </trkpt>
      <trkpt lat="42.441122" lon="2.221417">
        <ele>2317.0</ele>
        <time>2009-05-16T12:15:28Z</time>
      </trkpt>
      <trkpt lat="42.441228" lon="2.221435">
        <ele>2312.0</ele>
        <time>2009-05-16T12:15:33Z</time>
      </trkpt>
      <trkpt lat="42.441328" lon="2.221435">
        <ele>2305.0</ele>
        <time>2009-05-16T12:15:39Z</time>
      </trkpt>
      <trkpt lat="42.441428" lon="2.221426">
        <ele>2305.0</ele>
        <time>2009-05-16T12:15:43Z</time>
      </trkpt>
      <trkpt lat="42.441521" lon="2.221444">
        <ele>2298.0</ele>
        <time>2009-05-16T12:15:48Z</time>
      </trkpt>
      <trkpt lat="42.441614" lon="2.221426">
        <ele>2298.0</ele>
        <time>2009-05-16T12:15:53Z</time>
      </trkpt>
      <trkpt lat="42.441714" lon="2.221435">
        <ele>2290.0</ele>
        <time>2009-05-16T12:15:57Z</time>
      </trkpt>
      <trkpt lat="42.441820" lon="2.221444">
        <ele>2290.0</ele>
        <time>2009-05-16T12:16:03Z</time>
      </trkpt>
      <trkpt lat="42.441920" lon="2.221453">
        <ele>2290.0</ele>
        <time>2009-05-16T12:16:09Z</time>
      </trkpt>
      <trkpt lat="42.442027" lon="2.221444">
        <ele>2285.0</ele>
        <time>2009-05-16T12:16:15Z</time>
      </trkpt>
      <trkpt lat="42.442126" lon="2.221435">
        <ele>2285.0</ele>
        <time>2009-05-16T12:16:23Z</time>
      </trkpt>
      <trkpt lat="42.442220" lon="2.221444">
        <ele>2285.0</ele>
        <time>2009-05-16T12:16:32Z</time>
      </trkpt>
      <trkpt lat="42.442306" lon="2.221480">
        <ele>2279.0</ele>
        <time>2009-05-16T12:16:41Z</time>
      </trkpt>
      <trkpt lat="42.442399" lon="2.221489">
        <ele>2279.0</ele>
        <time>2009-05-16T12:16:48Z</time>
      </trkpt>
      <trkpt lat="42.442486" lon="2.221525">
        <ele>2279.0</ele>
        <time>2009-05-16T12:16:55Z</time>
      </trkpt>
      <trkpt lat="42.442579" lon="2.221552">
        <ele>2279.0</ele>
        <time>2009-05-16T12:17:04Z</time>
      </trkpt>
      <trkpt lat="42.442665" lon="2.221606">
        <ele>2273.0</ele>
        <time>2009-05-16T12:17:13Z</time>
      </trkpt>
      <trkpt lat="42.442752" lon="2.221659">
        <ele>2273.0</ele>
        <time>2009-05-16T12:17:22Z</time>
      </trkpt>
      <trkpt lat="42.442852" lon="2.221677">
        <ele>2273.0</ele>
        <time>2009-05-16T12:17:29Z</time>
      </trkpt>
      <trkpt lat="42.442945" lon="2.221695">
        <ele>2273.0</ele>
        <time>2009-05-16T12:17:36Z</time>
      </trkpt>
      <trkpt lat="42.443045" lon="2.221704">
        <ele>2267.0</ele>
        <time>2009-05-16T12:17:44Z</time>
      </trkpt>
      <trkpt lat="42.443144" lon="2.221695">
        <ele>2267.0</ele>
        <time>2009-05-16T12:17:52Z</time>
      </trkpt>
      <trkpt lat="42.443244" lon="2.221713">
        <ele>2267.0</ele>
        <time>2009-05-16T12:18:01Z</time>
      </trkpt>
      <trkpt lat="42.443344" lon="2.221713">
        <ele>2267.0</ele>
        <time>2009-05-16T12:18:09Z</time>
      </trkpt>
      <trkpt lat="42.443437" lon="2.221758">
        <ele>2267.0</ele>
        <time>2009-05-16T12:18:18Z</time>
      </trkpt>
      <trkpt lat="42.443537" lon="2.221776">
        <ele>2267.0</ele>
        <time>2009-05-16T12:18:26Z</time>
      </trkpt>
      <trkpt lat="42.443623" lon="2.221830">
        <ele>2267.0</ele>
        <time>2009-05-16T12:18:34Z</time>
      </trkpt>
      <trkpt lat="42.443710" lon="2.221866">
        <ele>2261.0</ele>
        <time>2009-05-16T12:18:41Z</time>
      </trkpt>
      <trkpt lat="42.443803" lon="2.221848">
        <ele>2261.0</ele>
        <time>2009-05-16T12:18:49Z</time>
      </trkpt>
      <trkpt lat="42.443890" lon="2.221884">
        <ele>2261.0</ele>
        <time>2009-05-16T12:18:58Z</time>
      </trkpt>
      <trkpt lat="42.443976" lon="2.221947">
        <ele>2261.0</ele>
        <time>2009-05-16T12:19:08Z</time>
      </trkpt>
      <trkpt lat="42.444063" lon="2.222010">
        <ele>2261.0</ele>
        <time>2009-05-16T12:19:16Z</time>
      </trkpt>
      <trkpt lat="42.444156" lon="2.221992">
        <ele>2253.0</ele>
        <time>2009-05-16T12:20:00Z</time>
      </trkpt>
      <trkpt lat="42.444256" lon="2.222001">
        <ele>2253.0</ele>
        <time>2009-05-16T12:21:02Z</time>
      </trkpt>
      <trkpt lat="42.444349" lon="2.222019">
        <ele>2253.0</ele>
        <time>2009-05-16T12:21:09Z</time>
      </trkpt>
      <trkpt lat="42.444415" lon="2.221929">
        <ele>2253.0</ele>
        <time>2009-05-16T12:21:16Z</time>
      </trkpt>
      <trkpt lat="42.444495" lon="2.221866">
        <ele>2253.0</ele>
        <time>2009-05-16T12:21:24Z</time>
      </trkpt>
      <trkpt lat="42.444575" lon="2.221785">
        <ele>2253.0</ele>
        <time>2009-05-16T12:21:29Z</time>
      </trkpt>
      <trkpt lat="42.444655" lon="2.221686">
        <ele>2253.0</ele>
        <time>2009-05-16T12:21:39Z</time>
      </trkpt>
      <trkpt lat="42.444728" lon="2.221579">
        <ele>2253.0</ele>
        <time>2009-05-16T12:21:47Z</time>
      </trkpt>
      <trkpt lat="42.444794" lon="2.221489">
        <ele>2246.0</ele>
        <time>2009-05-16T12:21:54Z</time>
      </trkpt>
      <trkpt lat="42.444874" lon="2.221408">
        <ele>2246.0</ele>
        <time>2009-05-16T12:22:05Z</time>
      </trkpt>
      <trkpt lat="42.444954" lon="2.221327">
        <ele>2251.0</ele>
        <time>2009-05-16T12:22:13Z</time>
      </trkpt>
      <trkpt lat="42.445041" lon="2.221282">
        <ele>2251.0</ele>
        <time>2009-05-16T12:22:22Z</time>
      </trkpt>
      <trkpt lat="42.445140" lon="2.221255">
        <ele>2243.0</ele>
        <time>2009-05-16T12:22:32Z</time>
      </trkpt>
      <trkpt lat="42.445234" lon="2.221210">
        <ele>2243.0</ele>
        <time>2009-05-16T12:22:43Z</time>
      </trkpt>
      <trkpt lat="42.445327" lon="2.221192">
        <ele>2235.0</ele>
        <time>2009-05-16T12:23:14Z</time>
      </trkpt>
      <trkpt lat="42.445420" lon="2.221165">
        <ele>2235.0</ele>
        <time>2009-05-16T12:23:27Z</time>
      </trkpt>
      <trkpt lat="42.445513" lon="2.221174">
        <ele>2229.0</ele>
        <time>2009-05-16T12:23:38Z</time>
      </trkpt>
      <trkpt lat="42.445619" lon="2.221120">
        <ele>2234.0</ele>
        <time>2009-05-16T12:23:40Z</time>
      </trkpt>
      <trkpt lat="42.445706" lon="2.221076">
        <ele>2234.0</ele>
        <time>2009-05-16T12:23:44Z</time>
      </trkpt>
      <trkpt lat="42.445806" lon="2.221067">
        <ele>2234.0</ele>
        <time>2009-05-16T12:23:55Z</time>
      </trkpt>
      <trkpt lat="42.445879" lon="2.220986">
        <ele>2224.0</ele>
        <time>2009-05-16T12:24:13Z</time>
      </trkpt>
      <trkpt lat="42.445965" lon="2.220941">
        <ele>2224.0</ele>
        <time>2009-05-16T12:24:23Z</time>
      </trkpt>
      <trkpt lat="42.446092" lon="2.220986">
        <ele>2232.0</ele>
        <time>2009-05-16T12:29:14Z</time>
      </trkpt>
      <trkpt lat="42.446178" lon="2.221049">
        <ele>2232.0</ele>
        <time>2009-05-16T12:29:21Z</time>
      </trkpt>
      <trkpt lat="42.446251" lon="2.221120">
        <ele>2232.0</ele>
        <time>2009-05-16T12:29:34Z</time>
      </trkpt>
      <trkpt lat="42.446351" lon="2.221129">
        <ele>2232.0</ele>
        <time>2009-05-16T12:29:43Z</time>
      </trkpt>
      <trkpt lat="42.446438" lon="2.221174">
        <ele>2224.0</ele>
        <time>2009-05-16T12:29:55Z</time>
      </trkpt>
      <trkpt lat="42.446531" lon="2.221192">
        <ele>2224.0</ele>
        <time>2009-05-16T12:30:04Z</time>
      </trkpt>
      <trkpt lat="42.446624" lon="2.221192">
        <ele>2224.0</ele>
        <time>2009-05-16T12:30:40Z</time>
      </trkpt>
      <trkpt lat="42.446711" lon="2.221156">
        <ele>2224.0</ele>
        <time>2009-05-16T12:30:52Z</time>
      </trkpt>
      <trkpt lat="42.446804" lon="2.221174">
        <ele>2224.0</ele>
        <time>2009-05-16T12:31:29Z</time>
      </trkpt>
      <trkpt lat="42.446910" lon="2.221156">
        <ele>2224.0</ele>
        <time>2009-05-16T12:31:48Z</time>
      </trkpt>
      <trkpt lat="42.447003" lon="2.221138">
        <ele>2229.0</ele>
        <time>2009-05-16T12:31:55Z</time>
      </trkpt>
      <trkpt lat="42.447096" lon="2.221085">
        <ele>2229.0</ele>
        <time>2009-05-16T12:32:00Z</time>
      </trkpt>
      <trkpt lat="42.447203" lon="2.221076">
        <ele>2229.0</ele>
        <time>2009-05-16T12:32:08Z</time>
      </trkpt>
      <trkpt lat="42.447289" lon="2.221129">
        <ele>2229.0</ele>
        <time>2009-05-16T12:32:20Z</time>
      </trkpt>
      <trkpt lat="42.447356" lon="2.221228">
        <ele>2224.0</ele>
        <time>2009-05-16T12:32:28Z</time>
      </trkpt>
      <trkpt lat="42.447456" lon="2.221291">
        <ele>2224.0</ele>
        <time>2009-05-16T12:32:34Z</time>
      </trkpt>
      <trkpt lat="42.447549" lon="2.221264">
        <ele>2224.0</ele>
        <time>2009-05-16T12:32:43Z</time>
      </trkpt>
      <trkpt lat="42.447642" lon="2.221255">
        <ele>2213.0</ele>
        <time>2009-05-16T12:32:56Z</time>
      </trkpt>
      <trkpt lat="42.447735" lon="2.221246">
        <ele>2213.0</ele>
        <time>2009-05-16T12:33:06Z</time>
      </trkpt>
      <trkpt lat="42.447828" lon="2.221246">
        <ele>2213.0</ele>
        <time>2009-05-16T12:33:11Z</time>
      </trkpt>
      <trkpt lat="42.448226" lon="2.221287">
        <ele>2201.2</ele>
        <time>2009-05-16T12:33:11Z</time>
      </trkpt>
      <trkpt lat="42.448580" lon="2.221499">
        <ele>2193.4</ele>
        <time>2009-05-16T12:33:11Z</time>
      </trkpt>
      <trkpt lat="42.449018" lon="2.221729">
        <ele>2183.2</ele>
        <time>2009-05-16T12:33:11Z</time>
      </trkpt>
      <trkpt lat="42.449259" lon="2.221805">
        <ele>2178.1</ele>
        <time>2009-05-16T12:33:11Z</time>
      </trkpt>
      <trkpt lat="42.449598" lon="2.222035">
        <ele>2168.8</ele>
        <time>2009-05-16T12:33:11Z</time>
      </trkpt>
      <trkpt lat="42.449909" lon="2.221997">
        <ele>2162.0</ele>
        <time>2009-05-16T12:33:11Z</time>
      </trkpt>
      <trkpt lat="42.450305" lon="2.222055">
        <ele>2155.1</ele>
        <time>2009-05-16T12:33:11Z</time>
      </trkpt>
      <trkpt lat="42.450856" lon="2.222572">
        <ele>2137.0</ele>
        <time>2009-05-16T12:33:11Z</time>
      </trkpt>
      <trkpt lat="42.451407" lon="2.223089">
        <ele>2127.7</ele>
        <time>2009-05-16T12:33:11Z</time>
      </trkpt>
      <trkpt lat="42.451958" lon="2.223377">
        <ele>2123.5</ele>
        <time>2009-05-16T12:33:11Z</time>
      </trkpt>
      <trkpt lat="42.452566" lon="2.223358">
        <ele>2118.8</ele>
        <time>2009-05-16T12:33:11Z</time>
      </trkpt>
      <trkpt lat="42.453159" lon="2.223301">
        <ele>2112.6</ele>
        <time>2009-05-16T12:33:11Z</time>
      </trkpt>
      <trkpt lat="42.453598" lon="2.223110">
        <ele>2102.0</ele>
        <time>2009-05-16T12:33:11Z</time>
      </trkpt>
      <trkpt lat="42.454036" lon="2.222899">
        <ele>2089.9</ele>
        <time>2009-05-16T12:33:11Z</time>
      </trkpt>
      <trkpt lat="42.454544" lon="2.222689">
        <ele>2077.9</ele>
        <time>2009-05-16T12:33:11Z</time>
      </trkpt>
      <trkpt lat="42.454908" lon="2.222430">
        <ele>2068.1</ele>
        <time>2009-05-16T12:33:11Z</time>
      </trkpt>
      <trkpt lat="42.455168" lon="2.222251">
        <ele>2064.3</ele>
        <time>2009-05-16T12:33:11Z</time>
      </trkpt>
      <trkpt lat="42.455352" lon="2.222259">
        <ele>2063.5</ele>
        <time>2009-05-16T12:33:11Z</time>
      </trkpt>
      <trkpt lat="42.455543" lon="2.222353">
        <ele>2063.9</ele>
        <time>2009-05-16T12:33:11Z</time>
      </trkpt>
      <trkpt lat="42.455785" lon="2.222275">
        <ele>2061.8</ele>
        <time>2009-05-16T12:33:11Z</time>
      </trkpt>
      <trkpt lat="42.456016" lon="2.222017">
        <ele>2059.1</ele>
        <time>2009-05-16T12:33:11Z</time>
      </trkpt>
      <trkpt lat="42.456334" lon="2.221853">
        <ele>2056.5</ele>
        <time>2009-05-16T12:33:11Z</time>
      </trkpt>
      <trkpt lat="42.456680" lon="2.221650">
        <ele>2050.2</ele>
        <time>2009-05-16T12:33:11Z</time>
      </trkpt>
      <trkpt lat="42.457096" lon="2.221689">
        <ele>2041.1</ele>
        <time>2009-05-16T12:33:11Z</time>
      </trkpt>
      <trkpt lat="42.457535" lon="2.221823">
        <ele>2034.0</ele>
        <time>2009-05-16T12:33:11Z</time>
      </trkpt>
      <trkpt lat="42.457979" lon="2.221956">
        <ele>2015.6</ele>
        <time>2009-05-16T12:33:11Z</time>
      </trkpt>
      <trkpt lat="42.458208" lon="2.222000">
        <ele>2004.6</ele>
        <time>2009-05-16T12:33:11Z</time>
      </trkpt>
      <trkpt lat="42.458232" lon="2.221742">
        <ele>1999.5</ele>
        <time>2009-05-16T12:33:11Z</time>
      </trkpt>
      <trkpt lat="42.458410" lon="2.221618">
        <ele>1990.4</ele>
        <time>2009-05-16T12:33:11Z</time>
      </trkpt>
      <trkpt lat="42.458778" lon="2.221712">
        <ele>1976.8</ele>
        <time>2009-05-16T12:33:11Z</time>
      </trkpt>
      <trkpt lat="42.459199" lon="2.221751">
        <ele>1960.0</ele>
        <time>2009-05-16T12:33:11Z</time>
      </trkpt>
      <trkpt lat="42.459648" lon="2.222118">
        <ele>1939.6</ele>
        <time>2009-05-16T12:33:11Z</time>
      </trkpt>
      <trkpt lat="42.459791" lon="2.222189">
        <ele>1933.0</ele>
        <time>2009-05-16T12:33:11Z</time>
      </trkpt>
      <trkpt lat="42.459789" lon="2.222069">
        <ele>1930.9</ele>
        <time>2009-05-16T12:33:11Z</time>
      </trkpt>
      <trkpt lat="42.459916" lon="2.222079">
        <ele>1924.0</ele>
        <time>2009-05-16T12:33:11Z</time>
      </trkpt>
      <trkpt lat="42.459913" lon="2.222009">
        <ele>1922.7</ele>
        <time>2009-05-16T12:33:11Z</time>
      </trkpt>
      <trkpt lat="42.460087" lon="2.222085">
        <ele>1915.1</ele>
        <time>2009-05-16T12:33:11Z</time>
      </trkpt>
      <trkpt lat="42.460289" lon="2.222383">
        <ele>1910.0</ele>
        <time>2009-05-16T12:33:11Z</time>
      </trkpt>
      <trkpt lat="42.460486" lon="2.222689">
        <ele>1903.2</ele>
        <time>2009-05-16T12:33:11Z</time>
      </trkpt>
      <trkpt lat="42.460586" lon="2.223067">
        <ele>1903.1</ele>
        <time>2009-05-16T12:33:11Z</time>
      </trkpt>
      <trkpt lat="42.460712" lon="2.223481">
        <ele>1902.4</ele>
        <time>2009-05-16T12:33:11Z</time>
      </trkpt>
      <trkpt lat="42.460924" lon="2.223867">
        <ele>1897.6</ele>
        <time>2009-05-16T12:33:11Z</time>
      </trkpt>
      <trkpt lat="42.461038" lon="2.224305">
        <ele>1898.0</ele>
        <time>2009-05-16T12:33:11Z</time>
      </trkpt>
      <trkpt lat="42.461185" lon="2.224766">
        <ele>1897.9</ele>
        <time>2009-05-16T12:33:11Z</time>
      </trkpt>
      <trkpt lat="42.461443" lon="2.225112">
        <ele>1890.8</ele>
        <time>2009-05-16T12:33:11Z</time>
      </trkpt>
      <trkpt lat="42.461607" lon="2.225440">
        <ele>1886.5</ele>
        <time>2009-05-16T12:33:11Z</time>
      </trkpt>
      <trkpt lat="42.461846" lon="2.226289">
        <ele>1886.5</ele>
        <time>2009-05-16T12:33:11Z</time>
      </trkpt>
      <trkpt lat="42.462062" lon="2.226945">
        <ele>1889.9</ele>
        <time>2009-05-16T12:33:11Z</time>
      </trkpt>
      <trkpt lat="42.462140" lon="2.227205">
        <ele>1893.4</ele>
        <time>2009-05-16T12:33:11Z</time>
      </trkpt>
      <trkpt lat="42.462290" lon="2.227452">
        <ele>1896.0</ele>
        <time>2009-05-16T12:33:11Z</time>
      </trkpt>
      <trkpt lat="42.462359" lon="2.227290">
        <ele>1891.1</ele>
        <time>2009-05-16T12:33:11Z</time>
      </trkpt>
      <trkpt lat="42.462407" lon="2.226940">
        <ele>1881.4</ele>
        <time>2009-05-16T12:33:11Z</time>
      </trkpt>
      <trkpt lat="42.462487" lon="2.226560">
        <ele>1870.7</ele>
        <time>2009-05-16T12:33:11Z</time>
      </trkpt>
      <trkpt lat="42.462629" lon="2.226156">
        <ele>1860.4</ele>
        <time>2009-05-16T12:33:11Z</time>
      </trkpt>
      <trkpt lat="42.462717" lon="2.225693">
        <ele>1852.2</ele>
        <time>2009-05-16T12:33:11Z</time>
      </trkpt>
      <trkpt lat="42.462710" lon="2.225181">
        <ele>1847.8</ele>
        <time>2009-05-16T12:33:11Z</time>
      </trkpt>
      <trkpt lat="42.462750" lon="2.224693">
        <ele>1843.6</ele>
        <time>2009-05-16T12:33:11Z</time>
      </trkpt>
      <trkpt lat="42.462997" lon="2.224392">
        <ele>1838.0</ele>
        <time>2009-05-16T12:33:11Z</time>
      </trkpt>
      <trkpt lat="42.463285" lon="2.223984">
        <ele>1834.9</ele>
        <time>2009-05-16T12:33:11Z</time>
      </trkpt>
      <trkpt lat="42.463601" lon="2.223639">
        <ele>1838.5</ele>
        <time>2009-05-16T12:33:11Z</time>
      </trkpt>
      <trkpt lat="42.463874" lon="2.223555">
        <ele>1841.1</ele>
        <time>2009-05-16T12:33:11Z</time>
      </trkpt>
      <trkpt lat="42.464082" lon="2.223659">
        <ele>1841.2</ele>
        <time>2009-05-16T12:33:11Z</time>
      </trkpt>
      <trkpt lat="42.464206" lon="2.223817">
        <ele>1840.9</ele>
        <time>2009-05-16T12:33:11Z</time>
      </trkpt>
      <trkpt lat="42.464304" lon="2.223895">
        <ele>1842.8</ele>
        <time>2009-05-16T12:33:11Z</time>
      </trkpt>
      <trkpt lat="42.464355" lon="2.223939">
        <ele>1843.8</ele>
        <time>2009-05-16T12:33:11Z</time>
      </trkpt>
    </trkseg>
  </trk>
</gpx>

